<?xml version='1.0' encoding='UTF-8'?>
<gpx version="1.1" creator="https://www.komoot.de" xmlns="http://www.topografix.com/GPX/1/1" xmlns:xsi="http://www.w3.org/2001/XMLSchema-instance" xsi:schemaLocation="http://www.topografix.com/GPX/1/1 http://www.topografix.com/GPX/1/1/gpx.xsd">
  <metadata>
    <name>GPX Download: Schweger Mühle – Naturfenster Kläuker's Dreih Runde von Landkreis Vechta</name>
    <author>
      <link href="https://www.komoot.de">
        <text>komoot</text>
        <type>text/html</type>
      </link>
    </author>
  </metadata>
  <wpt lat="52.652403" lon="8.111738">
    <name>Schweger Mühle</name>
    <sym>Flag, Blue</sym>
  </wpt>
  <wpt lat="52.643432" lon="8.101072">
    <name>Malerische, von Bäumen gesäumte Allee</name>
    <sym>Flag, Blue</sym>
  </wpt>
  <wpt lat="52.596473" lon="8.079751">
    <name>Rastplatz mit Bierkühler</name>
    <sym>Picnic Area</sym>
  </wpt>
  <wpt lat="52.603549" lon="8.169391">
    <name>Naturfenster Kläuker's Dreih</name>
    <sym>Flag, Blue</sym>
  </wpt>
  <wpt lat="52.596082" lon="8.182798">
    <name>Streuobstwiese Harpendorf</name>
    <sym>Flag, Blue</sym>
  </wpt>
  <wpt lat="52.608418" lon="8.203622">
    <name>La BARaca Café</name>
    <sym>Restaurant</sym>
  </wpt>
  <wpt lat="52.628197" lon="8.249830">
    <name>Töwer Südlohne Bierhebewerk</name>
    <sym>Picnic Area</sym>
  </wpt>
  <trk>
    <name>GPX Download: Schweger Mühle – Naturfenster Kläuker's Dreih Runde von Landkreis Vechta</name>
    <trkseg>
      <trkpt lat="52.671256" lon="8.219017">
        <ele>31.386281</ele>
        <time>2026-03-20T11:18:03.473Z</time>
      </trkpt>
      <trkpt lat="52.671333" lon="8.219059">
        <ele>31.386281</ele>
        <time>2026-03-20T11:18:05.762Z</time>
      </trkpt>
      <trkpt lat="52.671399" lon="8.219092">
        <ele>31.386281</ele>
        <time>2026-03-20T11:18:07.682Z</time>
      </trkpt>
      <trkpt lat="52.671491" lon="8.218634">
        <ele>31.386281</ele>
        <time>2026-03-20T11:18:14.144Z</time>
      </trkpt>
      <trkpt lat="52.671407" lon="8.218604">
        <ele>31.386281</ele>
        <time>2026-03-20T11:18:16.067Z</time>
      </trkpt>
      <trkpt lat="52.671065" lon="8.218325">
        <ele>31.385259</ele>
        <time>2026-03-20T11:18:24.560Z</time>
      </trkpt>
      <trkpt lat="52.670933" lon="8.218209">
        <ele>31.371130</ele>
        <time>2026-03-20T11:18:27.912Z</time>
      </trkpt>
      <trkpt lat="52.670388" lon="8.217734">
        <ele>31.312899</ele>
        <time>2026-03-20T11:18:41.693Z</time>
      </trkpt>
      <trkpt lat="52.670018" lon="8.217422">
        <ele>31.273643</ele>
        <time>2026-03-20T11:18:51.054Z</time>
      </trkpt>
      <trkpt lat="52.669598" lon="8.217052">
        <ele>31.228662</ele>
        <time>2026-03-20T11:19:01.825Z</time>
      </trkpt>
      <trkpt lat="52.669324" lon="8.216804">
        <ele>31.249755</ele>
        <time>2026-03-20T11:19:09.018Z</time>
      </trkpt>
      <trkpt lat="52.669074" lon="8.216583">
        <ele>31.301642</ele>
        <time>2026-03-20T11:19:15.486Z</time>
      </trkpt>
      <trkpt lat="52.668512" lon="8.216089">
        <ele>31.418137</ele>
        <time>2026-03-20T11:19:30.175Z</time>
      </trkpt>
      <trkpt lat="52.668408" lon="8.215999">
        <ele>31.439621</ele>
        <time>2026-03-20T11:19:32.886Z</time>
      </trkpt>
      <trkpt lat="52.667789" lon="8.215462">
        <ele>31.567180</ele>
        <time>2026-03-20T11:19:49.212Z</time>
      </trkpt>
      <trkpt lat="52.667114" lon="8.214843">
        <ele>31.706019</ele>
        <time>2026-03-20T11:20:06.655Z</time>
      </trkpt>
      <trkpt lat="52.665715" lon="8.213612">
        <ele>31.891108</ele>
        <time>2026-03-20T11:20:43.007Z</time>
      </trkpt>
      <trkpt lat="52.665183" lon="8.213187">
        <ele>31.910561</ele>
        <time>2026-03-20T11:20:56.139Z</time>
      </trkpt>
      <trkpt lat="52.664949" lon="8.213006">
        <ele>31.919066</ele>
        <time>2026-03-20T11:21:01.701Z</time>
      </trkpt>
      <trkpt lat="52.663909" lon="8.212103">
        <ele>32.067163</ele>
        <time>2026-03-20T11:21:27.744Z</time>
      </trkpt>
      <trkpt lat="52.663830" lon="8.212042">
        <ele>32.080557</ele>
        <time>2026-03-20T11:21:29.757Z</time>
      </trkpt>
      <trkpt lat="52.663836" lon="8.211898">
        <ele>32.093998</ele>
        <time>2026-03-20T11:21:31.905Z</time>
      </trkpt>
      <trkpt lat="52.664244" lon="8.209871">
        <ele>32.038433</ele>
        <time>2026-03-20T11:22:03.084Z</time>
      </trkpt>
      <trkpt lat="52.664956" lon="8.205820">
        <ele>30.983854</ele>
        <time>2026-03-20T11:22:54.364Z</time>
      </trkpt>
      <trkpt lat="52.665413" lon="8.203239">
        <ele>30.459240</ele>
        <time>2026-03-20T11:23:29.487Z</time>
      </trkpt>
      <trkpt lat="52.665468" lon="8.202929">
        <ele>30.412075</ele>
        <time>2026-03-20T11:23:33.661Z</time>
      </trkpt>
      <trkpt lat="52.666412" lon="8.197558">
        <ele>29.649443</ele>
        <time>2026-03-20T11:24:45.926Z</time>
      </trkpt>
      <trkpt lat="52.666880" lon="8.194904">
        <ele>29.312619</ele>
        <time>2026-03-20T11:25:22.392Z</time>
      </trkpt>
      <trkpt lat="52.667773" lon="8.189950">
        <ele>28.499062</ele>
        <time>2026-03-20T11:26:28.683Z</time>
      </trkpt>
      <trkpt lat="52.667961" lon="8.188686">
        <ele>28.375644</ele>
        <time>2026-03-20T11:26:45.743Z</time>
      </trkpt>
      <trkpt lat="52.668111" lon="8.187297">
        <ele>28.296006</ele>
        <time>2026-03-20T11:27:04.678Z</time>
      </trkpt>
      <trkpt lat="52.668159" lon="8.186258">
        <ele>28.278598</ele>
        <time>2026-03-20T11:27:18.662Z</time>
      </trkpt>
      <trkpt lat="52.668206" lon="8.184246">
        <ele>28.353747</ele>
        <time>2026-03-20T11:27:45.557Z</time>
      </trkpt>
      <trkpt lat="52.668244" lon="8.181065">
        <ele>28.928127</ele>
        <time>2026-03-20T11:28:31.037Z</time>
      </trkpt>
      <trkpt lat="52.668266" lon="8.178659">
        <ele>29.538255</ele>
        <time>2026-03-20T11:29:07.367Z</time>
      </trkpt>
      <trkpt lat="52.668269" lon="8.178546">
        <ele>29.539360</ele>
        <time>2026-03-20T11:29:08.981Z</time>
      </trkpt>
      <trkpt lat="52.668284" lon="8.176547">
        <ele>29.558881</ele>
        <time>2026-03-20T11:29:35.535Z</time>
      </trkpt>
      <trkpt lat="52.668277" lon="8.175415">
        <ele>29.444544</ele>
        <time>2026-03-20T11:29:49.833Z</time>
      </trkpt>
      <trkpt lat="52.668237" lon="8.174591">
        <ele>29.308065</ele>
        <time>2026-03-20T11:30:00.365Z</time>
      </trkpt>
      <trkpt lat="52.668174" lon="8.173832">
        <ele>29.181584</ele>
        <time>2026-03-20T11:30:10.208Z</time>
      </trkpt>
      <trkpt lat="52.667576" lon="8.168485">
        <ele>28.524492</ele>
        <time>2026-03-20T11:31:21.810Z</time>
      </trkpt>
      <trkpt lat="52.667547" lon="8.168273">
        <ele>28.487489</ele>
        <time>2026-03-20T11:31:24.631Z</time>
      </trkpt>
      <trkpt lat="52.667483" lon="8.167678">
        <ele>28.384601</ele>
        <time>2026-03-20T11:31:32.295Z</time>
      </trkpt>
      <trkpt lat="52.667185" lon="8.164907">
        <ele>27.497345</ele>
        <time>2026-03-20T11:32:06.640Z</time>
      </trkpt>
      <trkpt lat="52.667159" lon="8.164671">
        <ele>27.417114</ele>
        <time>2026-03-20T11:32:09.611Z</time>
      </trkpt>
      <trkpt lat="52.666739" lon="8.161025">
        <ele>26.904273</ele>
        <time>2026-03-20T11:32:57.633Z</time>
      </trkpt>
      <trkpt lat="52.666118" lon="8.155563">
        <ele>27.117757</ele>
        <time>2026-03-20T11:34:13.756Z</time>
      </trkpt>
      <trkpt lat="52.666074" lon="8.155012">
        <ele>27.167838</ele>
        <time>2026-03-20T11:34:21.604Z</time>
      </trkpt>
      <trkpt lat="52.666018" lon="8.154303">
        <ele>27.232267</ele>
        <time>2026-03-20T11:34:31.761Z</time>
      </trkpt>
      <trkpt lat="52.665971" lon="8.152636">
        <ele>27.364002</ele>
        <time>2026-03-20T11:34:54.777Z</time>
      </trkpt>
      <trkpt lat="52.665940" lon="8.152508">
        <ele>27.351592</ele>
        <time>2026-03-20T11:34:56.647Z</time>
      </trkpt>
      <trkpt lat="52.665874" lon="8.152475">
        <ele>27.341353</ele>
        <time>2026-03-20T11:34:58.193Z</time>
      </trkpt>
      <trkpt lat="52.665819" lon="8.152454">
        <ele>27.332972</ele>
        <time>2026-03-20T11:34:59.445Z</time>
      </trkpt>
      <trkpt lat="52.665892" lon="8.151651">
        <ele>27.259865</ele>
        <time>2026-03-20T11:35:10.308Z</time>
      </trkpt>
      <trkpt lat="52.665936" lon="8.150320">
        <ele>27.139849</ele>
        <time>2026-03-20T11:35:27.624Z</time>
      </trkpt>
      <trkpt lat="52.666043" lon="8.147071">
        <ele>26.550551</ele>
        <time>2026-03-20T11:36:08.951Z</time>
      </trkpt>
      <trkpt lat="52.666106" lon="8.146118">
        <ele>26.602131</ele>
        <time>2026-03-20T11:36:21.585Z</time>
      </trkpt>
      <trkpt lat="52.666193" lon="8.145452">
        <ele>26.655082</ele>
        <time>2026-03-20T11:36:30.931Z</time>
      </trkpt>
      <trkpt lat="52.666397" lon="8.144348">
        <ele>26.744783</ele>
        <time>2026-03-20T11:36:47.598Z</time>
      </trkpt>
      <trkpt lat="52.666570" lon="8.143750">
        <ele>26.847160</ele>
        <time>2026-03-20T11:36:57.165Z</time>
      </trkpt>
      <trkpt lat="52.666718" lon="8.143342">
        <ele>26.943686</ele>
        <time>2026-03-20T11:37:03.978Z</time>
      </trkpt>
      <trkpt lat="52.666768" lon="8.143204">
        <ele>26.976325</ele>
        <time>2026-03-20T11:37:06.276Z</time>
      </trkpt>
      <trkpt lat="52.666597" lon="8.142843">
        <ele>27.069329</ele>
        <time>2026-03-20T11:37:12.956Z</time>
      </trkpt>
      <trkpt lat="52.666519" lon="8.142665">
        <ele>27.113916</ele>
        <time>2026-03-20T11:37:16.143Z</time>
      </trkpt>
      <trkpt lat="52.665995" lon="8.141413">
        <ele>27.430004</ele>
        <time>2026-03-20T11:37:37.798Z</time>
      </trkpt>
      <trkpt lat="52.665931" lon="8.141227">
        <ele>27.479039</ele>
        <time>2026-03-20T11:37:40.887Z</time>
      </trkpt>
      <trkpt lat="52.665921" lon="8.141192">
        <ele>27.487911</ele>
        <time>2026-03-20T11:37:41.458Z</time>
      </trkpt>
      <trkpt lat="52.665891" lon="8.141084">
        <ele>27.515149</ele>
        <time>2026-03-20T11:37:43.203Z</time>
      </trkpt>
      <trkpt lat="52.665729" lon="8.140523">
        <ele>27.657622</ele>
        <time>2026-03-20T11:37:52.378Z</time>
      </trkpt>
      <trkpt lat="52.665635" lon="8.140197">
        <ele>27.740392</ele>
        <time>2026-03-20T11:37:57.776Z</time>
      </trkpt>
      <trkpt lat="52.665246" lon="8.138938">
        <ele>28.042707</ele>
        <time>2026-03-20T11:38:18.512Z</time>
      </trkpt>
      <trkpt lat="52.664969" lon="8.138068">
        <ele>27.988066</ele>
        <time>2026-03-20T11:38:31.384Z</time>
      </trkpt>
      <trkpt lat="52.664794" lon="8.137675">
        <ele>27.960954</ele>
        <time>2026-03-20T11:38:37.610Z</time>
      </trkpt>
      <trkpt lat="52.664225" lon="8.136582">
        <ele>27.882052</ele>
        <time>2026-03-20T11:38:56.312Z</time>
      </trkpt>
      <trkpt lat="52.664155" lon="8.136438">
        <ele>27.882343</ele>
        <time>2026-03-20T11:38:58.791Z</time>
      </trkpt>
      <trkpt lat="52.663825" lon="8.135808">
        <ele>27.883653</ele>
        <time>2026-03-20T11:39:10.230Z</time>
      </trkpt>
      <trkpt lat="52.663707" lon="8.135590">
        <ele>27.884113</ele>
        <time>2026-03-20T11:39:14.385Z</time>
      </trkpt>
      <trkpt lat="52.662973" lon="8.134261">
        <ele>27.877423</ele>
        <time>2026-03-20T11:39:38.603Z</time>
      </trkpt>
      <trkpt lat="52.662883" lon="8.134035">
        <ele>27.861958</ele>
        <time>2026-03-20T11:39:42.128Z</time>
      </trkpt>
      <trkpt lat="52.662836" lon="8.133841">
        <ele>27.850008</ele>
        <time>2026-03-20T11:39:44.850Z</time>
      </trkpt>
      <trkpt lat="52.662161" lon="8.132434">
        <ele>27.747390</ele>
        <time>2026-03-20T11:40:08.328Z</time>
      </trkpt>
      <trkpt lat="52.662035" lon="8.132178">
        <ele>27.728530</ele>
        <time>2026-03-20T11:40:12.842Z</time>
      </trkpt>
      <trkpt lat="52.661748" lon="8.131565">
        <ele>27.751985</ele>
        <time>2026-03-20T11:40:23.261Z</time>
      </trkpt>
      <trkpt lat="52.661680" lon="8.130985">
        <ele>27.787957</ele>
        <time>2026-03-20T11:40:31.233Z</time>
      </trkpt>
      <trkpt lat="52.661573" lon="8.130056">
        <ele>27.845537</ele>
        <time>2026-03-20T11:40:44.117Z</time>
      </trkpt>
      <trkpt lat="52.660616" lon="8.130285">
        <ele>28.110908</ele>
        <time>2026-03-20T11:41:13.572Z</time>
      </trkpt>
      <trkpt lat="52.660606" lon="8.130119">
        <ele>28.159059</ele>
        <time>2026-03-20T11:41:16.784Z</time>
      </trkpt>
      <trkpt lat="52.660578" lon="8.129544">
        <ele>28.325565</ele>
        <time>2026-03-20T11:41:27.920Z</time>
      </trkpt>
      <trkpt lat="52.660570" lon="8.129296">
        <ele>28.397250</ele>
        <time>2026-03-20T11:41:31.627Z</time>
      </trkpt>
      <trkpt lat="52.660643" lon="8.128398">
        <ele>28.658771</ele>
        <time>2026-03-20T11:41:44.974Z</time>
      </trkpt>
      <trkpt lat="52.660680" lon="8.128084">
        <ele>28.751101</ele>
        <time>2026-03-20T11:41:49.645Z</time>
      </trkpt>
      <trkpt lat="52.660856" lon="8.126571">
        <ele>29.047524</ele>
        <time>2026-03-20T11:42:11.599Z</time>
      </trkpt>
      <trkpt lat="52.660877" lon="8.126388">
        <ele>29.083259</ele>
        <time>2026-03-20T11:42:14.187Z</time>
      </trkpt>
      <trkpt lat="52.660931" lon="8.125572">
        <ele>29.240753</ele>
        <time>2026-03-20T11:42:25.945Z</time>
      </trkpt>
      <trkpt lat="52.660917" lon="8.124937">
        <ele>29.326626</ele>
        <time>2026-03-20T11:42:35.125Z</time>
      </trkpt>
      <trkpt lat="52.660925" lon="8.124590">
        <ele>29.333366</ele>
        <time>2026-03-20T11:42:40.061Z</time>
      </trkpt>
      <trkpt lat="52.660956" lon="8.124415">
        <ele>29.336904</ele>
        <time>2026-03-20T11:42:42.579Z</time>
      </trkpt>
      <trkpt lat="52.661046" lon="8.123936">
        <ele>29.346637</ele>
        <time>2026-03-20T11:42:49.395Z</time>
      </trkpt>
      <trkpt lat="52.661126" lon="8.123537">
        <ele>29.354793</ele>
        <time>2026-03-20T11:42:55.155Z</time>
      </trkpt>
      <trkpt lat="52.661107" lon="8.123295">
        <ele>29.359529</ele>
        <time>2026-03-20T11:42:58.470Z</time>
      </trkpt>
      <trkpt lat="52.661051" lon="8.123086">
        <ele>29.363964</ele>
        <time>2026-03-20T11:43:01.557Z</time>
      </trkpt>
      <trkpt lat="52.660774" lon="8.122696">
        <ele>29.375621</ele>
        <time>2026-03-20T11:43:09.433Z</time>
      </trkpt>
      <trkpt lat="52.660669" lon="8.122509">
        <ele>29.378272</ele>
        <time>2026-03-20T11:43:12.684Z</time>
      </trkpt>
      <trkpt lat="52.660552" lon="8.122308">
        <ele>29.355504</ele>
        <time>2026-03-20T11:43:16.210Z</time>
      </trkpt>
      <trkpt lat="52.660167" lon="8.121447">
        <ele>29.268082</ele>
        <time>2026-03-20T11:43:30.114Z</time>
      </trkpt>
      <trkpt lat="52.660097" lon="8.121267">
        <ele>29.250607</ele>
        <time>2026-03-20T11:43:32.984Z</time>
      </trkpt>
      <trkpt lat="52.659991" lon="8.120936">
        <ele>29.220016</ele>
        <time>2026-03-20T11:43:38.073Z</time>
      </trkpt>
      <trkpt lat="52.659937" lon="8.120693">
        <ele>29.198865</ele>
        <time>2026-03-20T11:43:41.489Z</time>
      </trkpt>
      <trkpt lat="52.659901" lon="8.120550">
        <ele>29.186211</ele>
        <time>2026-03-20T11:43:43.520Z</time>
      </trkpt>
      <trkpt lat="52.659769" lon="8.119969">
        <ele>29.129289</ele>
        <time>2026-03-20T11:43:51.801Z</time>
      </trkpt>
      <trkpt lat="52.659729" lon="8.119795">
        <ele>29.072348</ele>
        <time>2026-03-20T11:43:54.277Z</time>
      </trkpt>
      <trkpt lat="52.659617" lon="8.119314">
        <ele>28.914687</ele>
        <time>2026-03-20T11:44:01.094Z</time>
      </trkpt>
      <trkpt lat="52.659577" lon="8.119070">
        <ele>28.837343</ele>
        <time>2026-03-20T11:44:04.373Z</time>
      </trkpt>
      <trkpt lat="52.659576" lon="8.118851">
        <ele>28.770326</ele>
        <time>2026-03-20T11:44:07.167Z</time>
      </trkpt>
      <trkpt lat="52.659615" lon="8.118424">
        <ele>28.638188</ele>
        <time>2026-03-20T11:44:12.512Z</time>
      </trkpt>
      <trkpt lat="52.659695" lon="8.117482">
        <ele>28.347120</ele>
        <time>2026-03-20T11:44:23.744Z</time>
      </trkpt>
      <trkpt lat="52.658536" lon="8.117507">
        <ele>27.919002</ele>
        <time>2026-03-20T11:44:47.815Z</time>
      </trkpt>
      <trkpt lat="52.657946" lon="8.117331">
        <ele>27.717763</ele>
        <time>2026-03-20T11:45:01.877Z</time>
      </trkpt>
      <trkpt lat="52.657917" lon="8.117323">
        <ele>27.707894</ele>
        <time>2026-03-20T11:45:02.566Z</time>
      </trkpt>
      <trkpt lat="52.657862" lon="8.117310">
        <ele>27.689246</ele>
        <time>2026-03-20T11:45:03.895Z</time>
      </trkpt>
      <trkpt lat="52.657722" lon="8.117276">
        <ele>27.641750</ele>
        <time>2026-03-20T11:45:07.248Z</time>
      </trkpt>
      <trkpt lat="52.657341" lon="8.117190">
        <ele>27.679772</ele>
        <time>2026-03-20T11:45:16.680Z</time>
      </trkpt>
      <trkpt lat="52.657091" lon="8.117161">
        <ele>27.718961</ele>
        <time>2026-03-20T11:45:22.873Z</time>
      </trkpt>
      <trkpt lat="52.656999" lon="8.117156">
        <ele>27.733355</ele>
        <time>2026-03-20T11:45:25.129Z</time>
      </trkpt>
      <trkpt lat="52.656992" lon="8.117156">
        <ele>27.734450</ele>
        <time>2026-03-20T11:45:25.300Z</time>
      </trkpt>
      <trkpt lat="52.656693" lon="8.117169">
        <ele>27.781221</ele>
        <time>2026-03-20T11:45:32.667Z</time>
      </trkpt>
      <trkpt lat="52.655850" lon="8.117409">
        <ele>27.910780</ele>
        <time>2026-03-20T11:45:52.436Z</time>
      </trkpt>
      <trkpt lat="52.655805" lon="8.117253">
        <ele>27.917402</ele>
        <time>2026-03-20T11:45:54.750Z</time>
      </trkpt>
      <trkpt lat="52.655860" lon="8.117244">
        <ele>27.920895</ele>
        <time>2026-03-20T11:45:56.341Z</time>
      </trkpt>
      <trkpt lat="52.655672" lon="8.116675">
        <ele>27.945735</ele>
        <time>2026-03-20T11:46:07.983Z</time>
      </trkpt>
      <trkpt lat="52.655473" lon="8.116326">
        <ele>27.964098</ele>
        <time>2026-03-20T11:46:16.655Z</time>
      </trkpt>
      <trkpt lat="52.655418" lon="8.116188">
        <ele>27.970429</ele>
        <time>2026-03-20T11:46:19.624Z</time>
      </trkpt>
      <trkpt lat="52.655348" lon="8.116174">
        <ele>27.974885</ele>
        <time>2026-03-20T11:46:21.761Z</time>
      </trkpt>
      <trkpt lat="52.654741" lon="8.115480">
        <ele>28.021571</ele>
        <time>2026-03-20T11:46:43.342Z</time>
      </trkpt>
      <trkpt lat="52.654539" lon="8.115229">
        <ele>28.041704</ele>
        <time>2026-03-20T11:46:50.671Z</time>
      </trkpt>
      <trkpt lat="52.654106" lon="8.114691">
        <ele>28.084872</ele>
        <time>2026-03-20T11:47:03.156Z</time>
      </trkpt>
      <trkpt lat="52.653767" lon="8.114262">
        <ele>28.118896</ele>
        <time>2026-03-20T11:47:13.263Z</time>
      </trkpt>
      <trkpt lat="52.653604" lon="8.114029">
        <ele>28.136073</ele>
        <time>2026-03-20T11:47:18.192Z</time>
      </trkpt>
      <trkpt lat="52.653179" lon="8.113415">
        <ele>28.081477</ele>
        <time>2026-03-20T11:47:34.457Z</time>
      </trkpt>
      <trkpt lat="52.653100" lon="8.113282">
        <ele>28.035443</ele>
        <time>2026-03-20T11:47:37.662Z</time>
      </trkpt>
      <trkpt lat="52.653041" lon="8.113189">
        <ele>28.002164</ele>
        <time>2026-03-20T11:47:39.360Z</time>
      </trkpt>
      <trkpt lat="52.653029" lon="8.113048">
        <ele>27.966952</ele>
        <time>2026-03-20T11:47:41.192Z</time>
      </trkpt>
      <trkpt lat="52.652561" lon="8.112161">
        <ele>27.676229</ele>
        <time>2026-03-20T11:47:56.021Z</time>
      </trkpt>
      <trkpt lat="52.652472" lon="8.112109">
        <ele>27.637735</ele>
        <time>2026-03-20T11:47:57.931Z</time>
      </trkpt>
      <trkpt lat="52.652350" lon="8.111889">
        <ele>27.564020</ele>
        <time>2026-03-20T11:48:01.512Z</time>
      </trkpt>
      <trkpt lat="52.652260" lon="8.111713">
        <ele>27.507092</ele>
        <time>2026-03-20T11:48:04.261Z</time>
      </trkpt>
      <trkpt lat="52.652106" lon="8.111381">
        <ele>27.405390</ele>
        <time>2026-03-20T11:48:09.347Z</time>
      </trkpt>
      <trkpt lat="52.650466" lon="8.108323">
        <ele>26.631569</ele>
        <time>2026-03-20T11:49:01.482Z</time>
      </trkpt>
      <trkpt lat="52.650070" lon="8.107562">
        <ele>26.541519</ele>
        <time>2026-03-20T11:49:14.611Z</time>
      </trkpt>
      <trkpt lat="52.649933" lon="8.107232">
        <ele>26.505604</ele>
        <time>2026-03-20T11:49:19.955Z</time>
      </trkpt>
      <trkpt lat="52.649867" lon="8.107163">
        <ele>26.494033</ele>
        <time>2026-03-20T11:49:21.677Z</time>
      </trkpt>
      <trkpt lat="52.649774" lon="8.106907">
        <ele>26.494720</ele>
        <time>2026-03-20T11:49:27.027Z</time>
      </trkpt>
      <trkpt lat="52.649769" lon="8.106783">
        <ele>26.519849</ele>
        <time>2026-03-20T11:49:28.721Z</time>
      </trkpt>
      <trkpt lat="52.648337" lon="8.102982">
        <ele>27.380570</ele>
        <time>2026-03-20T11:50:33.359Z</time>
      </trkpt>
      <trkpt lat="52.648240" lon="8.102811">
        <ele>27.421945</ele>
        <time>2026-03-20T11:50:36.670Z</time>
      </trkpt>
      <trkpt lat="52.648170" lon="8.102538">
        <ele>27.474327</ele>
        <time>2026-03-20T11:50:40.845Z</time>
      </trkpt>
      <trkpt lat="52.647033" lon="8.099535">
        <ele>27.698148</ele>
        <time>2026-03-20T11:51:29.202Z</time>
      </trkpt>
      <trkpt lat="52.646992" lon="8.099483">
        <ele>27.701128</ele>
        <time>2026-03-20T11:51:30.363Z</time>
      </trkpt>
      <trkpt lat="52.646929" lon="8.099470">
        <ele>27.704602</ele>
        <time>2026-03-20T11:51:31.787Z</time>
      </trkpt>
      <trkpt lat="52.643428" lon="8.101045">
        <ele>27.882292</ele>
        <time>2026-03-20T11:52:53.083Z</time>
      </trkpt>
      <trkpt lat="52.642289" lon="8.101558">
        <ele>27.823122</ele>
        <time>2026-03-20T11:53:19.438Z</time>
      </trkpt>
      <trkpt lat="52.642082" lon="8.101646">
        <ele>27.812409</ele>
        <time>2026-03-20T11:53:24.153Z</time>
      </trkpt>
      <trkpt lat="52.640902" lon="8.102153">
        <ele>27.571083</ele>
        <time>2026-03-20T11:53:50.342Z</time>
      </trkpt>
      <trkpt lat="52.639569" lon="8.102581">
        <ele>27.262114</ele>
        <time>2026-03-20T11:54:19.133Z</time>
      </trkpt>
      <trkpt lat="52.638942" lon="8.102772">
        <ele>27.152324</ele>
        <time>2026-03-20T11:54:32.844Z</time>
      </trkpt>
      <trkpt lat="52.638332" lon="8.102907">
        <ele>27.046346</ele>
        <time>2026-03-20T11:54:46.257Z</time>
      </trkpt>
      <trkpt lat="52.637182" lon="8.103059">
        <ele>27.066043</ele>
        <time>2026-03-20T11:55:11.812Z</time>
      </trkpt>
      <trkpt lat="52.637113" lon="8.103021">
        <ele>27.068637</ele>
        <time>2026-03-20T11:55:13.450Z</time>
      </trkpt>
      <trkpt lat="52.637081" lon="8.102928">
        <ele>27.070951</ele>
        <time>2026-03-20T11:55:14.916Z</time>
      </trkpt>
      <trkpt lat="52.637069" lon="8.102776">
        <ele>27.074269</ele>
        <time>2026-03-20T11:55:17.014Z</time>
      </trkpt>
      <trkpt lat="52.637065" lon="8.099801">
        <ele>27.416639</ele>
        <time>2026-03-20T11:55:58.443Z</time>
      </trkpt>
      <trkpt lat="52.637039" lon="8.099663">
        <ele>27.438693</ele>
        <time>2026-03-20T11:56:00.489Z</time>
      </trkpt>
      <trkpt lat="52.636973" lon="8.099590">
        <ele>27.458685</ele>
        <time>2026-03-20T11:56:02.337Z</time>
      </trkpt>
      <trkpt lat="52.636905" lon="8.099572">
        <ele>27.476007</ele>
        <time>2026-03-20T11:56:03.935Z</time>
      </trkpt>
      <trkpt lat="52.635602" lon="8.099702">
        <ele>28.062756</ele>
        <time>2026-03-20T11:56:35.241Z</time>
      </trkpt>
      <trkpt lat="52.634434" lon="8.099819">
        <ele>28.575282</ele>
        <time>2026-03-20T11:57:04.095Z</time>
      </trkpt>
      <trkpt lat="52.633969" lon="8.099865">
        <ele>28.722178</ele>
        <time>2026-03-20T11:57:15.389Z</time>
      </trkpt>
      <trkpt lat="52.633483" lon="8.099912">
        <ele>28.875695</ele>
        <time>2026-03-20T11:57:26.856Z</time>
      </trkpt>
      <trkpt lat="52.632854" lon="8.099966">
        <ele>28.934974</ele>
        <time>2026-03-20T11:57:40.876Z</time>
      </trkpt>
      <trkpt lat="52.632402" lon="8.099902">
        <ele>28.738368</ele>
        <time>2026-03-20T11:57:50.482Z</time>
      </trkpt>
      <trkpt lat="52.632362" lon="8.099818">
        <ele>28.710285</ele>
        <time>2026-03-20T11:57:51.826Z</time>
      </trkpt>
      <trkpt lat="52.632109" lon="8.098292">
        <ele>28.294201</ele>
        <time>2026-03-20T11:58:11.273Z</time>
      </trkpt>
      <trkpt lat="52.631965" lon="8.097871">
        <ele>28.176214</ele>
        <time>2026-03-20T11:58:17.153Z</time>
      </trkpt>
      <trkpt lat="52.631820" lon="8.097582">
        <ele>28.090616</ele>
        <time>2026-03-20T11:58:21.746Z</time>
      </trkpt>
      <trkpt lat="52.631722" lon="8.097322">
        <ele>28.020748</ele>
        <time>2026-03-20T11:58:25.523Z</time>
      </trkpt>
      <trkpt lat="52.631051" lon="8.094805">
        <ele>27.575744</ele>
        <time>2026-03-20T11:59:00.982Z</time>
      </trkpt>
      <trkpt lat="52.630115" lon="8.091147">
        <ele>27.695175</ele>
        <time>2026-03-20T11:59:55.946Z</time>
      </trkpt>
      <trkpt lat="52.630079" lon="8.091077">
        <ele>27.698878</ele>
        <time>2026-03-20T11:59:57.201Z</time>
      </trkpt>
      <trkpt lat="52.629113" lon="8.092329">
        <ele>27.789027</ele>
        <time>2026-03-20T12:00:24.244Z</time>
      </trkpt>
      <trkpt lat="52.628989" lon="8.092410">
        <ele>27.799979</ele>
        <time>2026-03-20T12:00:27.213Z</time>
      </trkpt>
      <trkpt lat="52.628726" lon="8.092482">
        <ele>27.821867</ele>
        <time>2026-03-20T12:00:33.205Z</time>
      </trkpt>
      <trkpt lat="52.626495" lon="8.092667">
        <ele>27.876055</ele>
        <time>2026-03-20T12:01:24.679Z</time>
      </trkpt>
      <trkpt lat="52.624796" lon="8.092774">
        <ele>27.225131</ele>
        <time>2026-03-20T12:01:58.963Z</time>
      </trkpt>
      <trkpt lat="52.624391" lon="8.092841">
        <ele>27.019144</ele>
        <time>2026-03-20T12:02:07.351Z</time>
      </trkpt>
      <trkpt lat="52.622473" lon="8.093440">
        <ele>26.707669</ele>
        <time>2026-03-20T12:02:50.071Z</time>
      </trkpt>
      <trkpt lat="52.622344" lon="8.093561">
        <ele>26.709635</ele>
        <time>2026-03-20T12:02:53.299Z</time>
      </trkpt>
      <trkpt lat="52.622226" lon="8.093892">
        <ele>26.712722</ele>
        <time>2026-03-20T12:02:58.354Z</time>
      </trkpt>
      <trkpt lat="52.622165" lon="8.094026">
        <ele>26.714069</ele>
        <time>2026-03-20T12:03:00.577Z</time>
      </trkpt>
      <trkpt lat="52.622068" lon="8.094115">
        <ele>26.715540</ele>
        <time>2026-03-20T12:03:02.969Z</time>
      </trkpt>
      <trkpt lat="52.621935" lon="8.094143">
        <ele>26.717317</ele>
        <time>2026-03-20T12:03:05.917Z</time>
      </trkpt>
      <trkpt lat="52.621848" lon="8.094108">
        <ele>26.718503</ele>
        <time>2026-03-20T12:03:07.889Z</time>
      </trkpt>
      <trkpt lat="52.621015" lon="8.093545">
        <ele>26.730431</ele>
        <time>2026-03-20T12:03:28.234Z</time>
      </trkpt>
      <trkpt lat="52.620913" lon="8.093474">
        <ele>26.749465</ele>
        <time>2026-03-20T12:03:30.831Z</time>
      </trkpt>
      <trkpt lat="52.619597" lon="8.092552">
        <ele>27.135143</ele>
        <time>2026-03-20T12:04:04.233Z</time>
      </trkpt>
      <trkpt lat="52.619425" lon="8.092531">
        <ele>27.181657</ele>
        <time>2026-03-20T12:04:08.212Z</time>
      </trkpt>
      <trkpt lat="52.619245" lon="8.092705">
        <ele>27.249896</ele>
        <time>2026-03-20T12:04:13.048Z</time>
      </trkpt>
      <trkpt lat="52.618736" lon="8.093388">
        <ele>27.523675</ele>
        <time>2026-03-20T12:04:28.725Z</time>
      </trkpt>
      <trkpt lat="52.618655" lon="8.093530">
        <ele>27.573004</ele>
        <time>2026-03-20T12:04:31.571Z</time>
      </trkpt>
      <trkpt lat="52.618523" lon="8.093925">
        <ele>27.687158</ele>
        <time>2026-03-20T12:04:38.262Z</time>
      </trkpt>
      <trkpt lat="52.618475" lon="8.094097">
        <ele>27.735084</ele>
        <time>2026-03-20T12:04:41.089Z</time>
      </trkpt>
      <trkpt lat="52.618164" lon="8.095198">
        <ele>27.940240</ele>
        <time>2026-03-20T12:04:58.984Z</time>
      </trkpt>
      <trkpt lat="52.618033" lon="8.095466">
        <ele>27.910732</ele>
        <time>2026-03-20T12:05:03.855Z</time>
      </trkpt>
      <trkpt lat="52.617454" lon="8.095950">
        <ele>27.819013</ele>
        <time>2026-03-20T12:05:17.728Z</time>
      </trkpt>
      <trkpt lat="52.617338" lon="8.096104">
        <ele>27.797967</ele>
        <time>2026-03-20T12:05:20.751Z</time>
      </trkpt>
      <trkpt lat="52.617246" lon="8.096390">
        <ele>27.770209</ele>
        <time>2026-03-20T12:05:24.756Z</time>
      </trkpt>
      <trkpt lat="52.617097" lon="8.097303">
        <ele>27.740837</ele>
        <time>2026-03-20T12:05:36.531Z</time>
      </trkpt>
      <trkpt lat="52.617025" lon="8.097435">
        <ele>27.759952</ele>
        <time>2026-03-20T12:05:38.747Z</time>
      </trkpt>
      <trkpt lat="52.616237" lon="8.094341">
        <ele>28.224120</ele>
        <time>2026-03-20T12:06:26.783Z</time>
      </trkpt>
      <trkpt lat="52.615670" lon="8.092517">
        <ele>28.696262</ele>
        <time>2026-03-20T12:06:56.801Z</time>
      </trkpt>
      <trkpt lat="52.615390" lon="8.092053">
        <ele>28.794863</ele>
        <time>2026-03-20T12:07:05.909Z</time>
      </trkpt>
      <trkpt lat="52.614838" lon="8.091250">
        <ele>28.965013</ele>
        <time>2026-03-20T12:07:22.656Z</time>
      </trkpt>
      <trkpt lat="52.613141" lon="8.088225">
        <ele>29.559399</ele>
        <time>2026-03-20T12:08:21.498Z</time>
      </trkpt>
      <trkpt lat="52.612686" lon="8.087310">
        <ele>29.256688</ele>
        <time>2026-03-20T12:08:36.660Z</time>
      </trkpt>
      <trkpt lat="52.611816" lon="8.085684">
        <ele>28.763304</ele>
        <time>2026-03-20T12:09:02.926Z</time>
      </trkpt>
      <trkpt lat="52.611557" lon="8.085277">
        <ele>28.723765</ele>
        <time>2026-03-20T12:09:10.348Z</time>
      </trkpt>
      <trkpt lat="52.611483" lon="8.085179">
        <ele>28.713278</ele>
        <time>2026-03-20T12:09:12.346Z</time>
      </trkpt>
      <trkpt lat="52.609200" lon="8.084191">
        <ele>28.796647</ele>
        <time>2026-03-20T12:10:06.478Z</time>
      </trkpt>
      <trkpt lat="52.603808" lon="8.081810">
        <ele>29.819622</ele>
        <time>2026-03-20T12:12:14.213Z</time>
      </trkpt>
      <trkpt lat="52.601672" lon="8.080862">
        <ele>30.688056</ele>
        <time>2026-03-20T12:13:08.034Z</time>
      </trkpt>
      <trkpt lat="52.601518" lon="8.080857">
        <ele>30.672936</ele>
        <time>2026-03-20T12:13:11.533Z</time>
      </trkpt>
      <trkpt lat="52.601455" lon="8.080861">
        <ele>30.666748</ele>
        <time>2026-03-20T12:13:12.940Z</time>
      </trkpt>
      <trkpt lat="52.599084" lon="8.081493">
        <ele>30.429982</ele>
        <time>2026-03-20T12:14:04.323Z</time>
      </trkpt>
      <trkpt lat="52.597902" lon="8.081500">
        <ele>30.451489</ele>
        <time>2026-03-20T12:14:30.538Z</time>
      </trkpt>
      <trkpt lat="52.597721" lon="8.081473">
        <ele>30.535860</ele>
        <time>2026-03-20T12:14:34.800Z</time>
      </trkpt>
      <trkpt lat="52.597626" lon="8.081413">
        <ele>30.583096</ele>
        <time>2026-03-20T12:14:37.212Z</time>
      </trkpt>
      <trkpt lat="52.597536" lon="8.081328">
        <ele>30.631264</ele>
        <time>2026-03-20T12:14:39.709Z</time>
      </trkpt>
      <trkpt lat="52.596471" lon="8.079755">
        <ele>31.220488</ele>
        <time>2026-03-20T12:15:15.583Z</time>
      </trkpt>
      <trkpt lat="52.596427" lon="8.079689">
        <ele>31.231331</ele>
        <time>2026-03-20T12:15:16.993Z</time>
      </trkpt>
      <trkpt lat="52.596489" lon="8.079387">
        <ele>31.266602</ele>
        <time>2026-03-20T12:15:21.551Z</time>
      </trkpt>
      <trkpt lat="52.596482" lon="8.079223">
        <ele>31.284793</ele>
        <time>2026-03-20T12:15:23.843Z</time>
      </trkpt>
      <trkpt lat="52.596035" lon="8.077821">
        <ele>31.459989</ele>
        <time>2026-03-20T12:15:45.404Z</time>
      </trkpt>
      <trkpt lat="52.595968" lon="8.077599">
        <ele>31.487417</ele>
        <time>2026-03-20T12:15:48.526Z</time>
      </trkpt>
      <trkpt lat="52.595413" lon="8.076450">
        <ele>31.600753</ele>
        <time>2026-03-20T12:16:07.891Z</time>
      </trkpt>
      <trkpt lat="52.595295" lon="8.076310">
        <ele>31.618585</ele>
        <time>2026-03-20T12:16:11.254Z</time>
      </trkpt>
      <trkpt lat="52.595204" lon="8.076258">
        <ele>31.630395</ele>
        <time>2026-03-20T12:16:13.523Z</time>
      </trkpt>
      <trkpt lat="52.594462" lon="8.076106">
        <ele>31.724964</ele>
        <time>2026-03-20T12:16:31.275Z</time>
      </trkpt>
      <trkpt lat="52.593214" lon="8.075987">
        <ele>32.116951</ele>
        <time>2026-03-20T12:17:01.031Z</time>
      </trkpt>
      <trkpt lat="52.592862" lon="8.076086">
        <ele>32.228925</ele>
        <time>2026-03-20T12:17:09.148Z</time>
      </trkpt>
      <trkpt lat="52.592533" lon="8.076101">
        <ele>32.308768</ele>
        <time>2026-03-20T12:17:16.672Z</time>
      </trkpt>
      <trkpt lat="52.592089" lon="8.076072">
        <ele>32.380193</ele>
        <time>2026-03-20T12:17:26.870Z</time>
      </trkpt>
      <trkpt lat="52.591847" lon="8.076019">
        <ele>32.419435</ele>
        <time>2026-03-20T12:17:32.456Z</time>
      </trkpt>
      <trkpt lat="52.590978" lon="8.075729">
        <ele>32.561962</ele>
        <time>2026-03-20T12:17:52.919Z</time>
      </trkpt>
      <trkpt lat="52.587832" lon="8.074817">
        <ele>32.553744</ele>
        <time>2026-03-20T12:19:04.457Z</time>
      </trkpt>
      <trkpt lat="52.587491" lon="8.074707">
        <ele>32.510925</ele>
        <time>2026-03-20T12:19:11.738Z</time>
      </trkpt>
      <trkpt lat="52.587342" lon="8.074701">
        <ele>32.484104</ele>
        <time>2026-03-20T12:19:14.768Z</time>
      </trkpt>
      <trkpt lat="52.587371" lon="8.074848">
        <ele>32.438069</ele>
        <time>2026-03-20T12:19:16.660Z</time>
      </trkpt>
      <trkpt lat="52.587428" lon="8.075214">
        <ele>32.325530</ele>
        <time>2026-03-20T12:19:21.269Z</time>
      </trkpt>
      <trkpt lat="52.587430" lon="8.075399">
        <ele>32.270418</ele>
        <time>2026-03-20T12:19:23.537Z</time>
      </trkpt>
      <trkpt lat="52.587367" lon="8.075820">
        <ele>32.141274</ele>
        <time>2026-03-20T12:19:28.819Z</time>
      </trkpt>
      <trkpt lat="52.587170" lon="8.076613">
        <ele>31.886093</ele>
        <time>2026-03-20T12:19:39.274Z</time>
      </trkpt>
      <trkpt lat="52.586186" lon="8.080640">
        <ele>31.300366</ele>
        <time>2026-03-20T12:20:35.815Z</time>
      </trkpt>
      <trkpt lat="52.586073" lon="8.081001">
        <ele>31.316869</ele>
        <time>2026-03-20T12:20:41.537Z</time>
      </trkpt>
      <trkpt lat="52.585540" lon="8.082340">
        <ele>31.381925</ele>
        <time>2026-03-20T12:21:03.912Z</time>
      </trkpt>
      <trkpt lat="52.585723" lon="8.082544">
        <ele>31.396709</ele>
        <time>2026-03-20T12:21:10.464Z</time>
      </trkpt>
      <trkpt lat="52.586745" lon="8.083491">
        <ele>31.596109</ele>
        <time>2026-03-20T12:21:44.885Z</time>
      </trkpt>
      <trkpt lat="52.587919" lon="8.084379">
        <ele>31.909666</ele>
        <time>2026-03-20T12:22:24.344Z</time>
      </trkpt>
      <trkpt lat="52.588154" lon="8.084676">
        <ele>32.004641</ele>
        <time>2026-03-20T12:22:33.633Z</time>
      </trkpt>
      <trkpt lat="52.588531" lon="8.085353">
        <ele>32.183492</ele>
        <time>2026-03-20T12:22:50.964Z</time>
      </trkpt>
      <trkpt lat="52.589038" lon="8.086423">
        <ele>32.228189</ele>
        <time>2026-03-20T12:23:10.541Z</time>
      </trkpt>
      <trkpt lat="52.589119" lon="8.086699">
        <ele>32.200991</ele>
        <time>2026-03-20T12:23:14.766Z</time>
      </trkpt>
      <trkpt lat="52.589388" lon="8.088138">
        <ele>32.067396</ele>
        <time>2026-03-20T12:23:34.890Z</time>
      </trkpt>
      <trkpt lat="52.589289" lon="8.089722">
        <ele>31.978375</ele>
        <time>2026-03-20T12:23:56.341Z</time>
      </trkpt>
      <trkpt lat="52.589311" lon="8.089824">
        <ele>31.973414</ele>
        <time>2026-03-20T12:23:57.843Z</time>
      </trkpt>
      <trkpt lat="52.586742" lon="8.092445">
        <ele>32.145503</ele>
        <time>2026-03-20T12:25:06.376Z</time>
      </trkpt>
      <trkpt lat="52.586363" lon="8.092821">
        <ele>32.252551</ele>
        <time>2026-03-20T12:25:16.315Z</time>
      </trkpt>
      <trkpt lat="52.586153" lon="8.093091">
        <ele>32.317013</ele>
        <time>2026-03-20T12:25:22.356Z</time>
      </trkpt>
      <trkpt lat="52.585998" lon="8.093384">
        <ele>32.374113</ele>
        <time>2026-03-20T12:25:27.769Z</time>
      </trkpt>
      <trkpt lat="52.584307" lon="8.097007">
        <ele>33.660953</ele>
        <time>2026-03-20T12:26:35.160Z</time>
      </trkpt>
      <trkpt lat="52.584210" lon="8.097200">
        <ele>33.754284</ele>
        <time>2026-03-20T12:26:38.952Z</time>
      </trkpt>
      <trkpt lat="52.584152" lon="8.097456">
        <ele>33.856091</ele>
        <time>2026-03-20T12:26:43.073Z</time>
      </trkpt>
      <trkpt lat="52.584122" lon="8.097587">
        <ele>33.908257</ele>
        <time>2026-03-20T12:26:45.185Z</time>
      </trkpt>
      <trkpt lat="52.582718" lon="8.101453">
        <ele>35.616769</ele>
        <time>2026-03-20T12:27:52.758Z</time>
      </trkpt>
      <trkpt lat="52.582703" lon="8.101557">
        <ele>35.657757</ele>
        <time>2026-03-20T12:27:54.390Z</time>
      </trkpt>
      <trkpt lat="52.582719" lon="8.101906">
        <ele>35.794567</ele>
        <time>2026-03-20T12:27:59.727Z</time>
      </trkpt>
      <trkpt lat="52.582912" lon="8.103824">
        <ele>36.557638</ele>
        <time>2026-03-20T12:28:29.276Z</time>
      </trkpt>
      <trkpt lat="52.582874" lon="8.103887">
        <ele>36.592480</ele>
        <time>2026-03-20T12:28:30.573Z</time>
      </trkpt>
      <trkpt lat="52.580310" lon="8.106238">
        <ele>38.205572</ele>
        <time>2026-03-20T12:29:42.965Z</time>
      </trkpt>
      <trkpt lat="52.579740" lon="8.106702">
        <ele>38.431868</ele>
        <time>2026-03-20T12:29:57.893Z</time>
      </trkpt>
      <trkpt lat="52.580792" lon="8.109059">
        <ele>38.524005</ele>
        <time>2026-03-20T12:30:37.488Z</time>
      </trkpt>
      <trkpt lat="52.581263" lon="8.110112">
        <ele>38.358478</ele>
        <time>2026-03-20T12:30:54.761Z</time>
      </trkpt>
      <trkpt lat="52.582775" lon="8.113481">
        <ele>37.476185</ele>
        <time>2026-03-20T12:31:46.780Z</time>
      </trkpt>
      <trkpt lat="52.582920" lon="8.113678">
        <ele>37.427158</ele>
        <time>2026-03-20T12:31:50.872Z</time>
      </trkpt>
      <trkpt lat="52.583311" lon="8.114696">
        <ele>37.371993</ele>
        <time>2026-03-20T12:32:07.650Z</time>
      </trkpt>
      <trkpt lat="52.584040" lon="8.116525">
        <ele>37.824608</ele>
        <time>2026-03-20T12:32:39.765Z</time>
      </trkpt>
      <trkpt lat="52.584453" lon="8.117307">
        <ele>37.981255</ele>
        <time>2026-03-20T12:32:54.331Z</time>
      </trkpt>
      <trkpt lat="52.584703" lon="8.117960">
        <ele>38.070722</ele>
        <time>2026-03-20T12:33:04.807Z</time>
      </trkpt>
      <trkpt lat="52.584858" lon="8.118518">
        <ele>38.141843</ele>
        <time>2026-03-20T12:33:13.186Z</time>
      </trkpt>
      <trkpt lat="52.584848" lon="8.118656">
        <ele>38.157953</ele>
        <time>2026-03-20T12:33:15.099Z</time>
      </trkpt>
      <trkpt lat="52.584859" lon="8.118707">
        <ele>38.164226</ele>
        <time>2026-03-20T12:33:15.885Z</time>
      </trkpt>
      <trkpt lat="52.584866" lon="8.118741">
        <ele>38.168388</ele>
        <time>2026-03-20T12:33:16.406Z</time>
      </trkpt>
      <trkpt lat="52.584899" lon="8.118892">
        <ele>38.186989</ele>
        <time>2026-03-20T12:33:18.734Z</time>
      </trkpt>
      <trkpt lat="52.584937" lon="8.119079">
        <ele>38.209846</ele>
        <time>2026-03-20T12:33:21.584Z</time>
      </trkpt>
      <trkpt lat="52.584978" lon="8.119281">
        <ele>38.234533</ele>
        <time>2026-03-20T12:33:24.666Z</time>
      </trkpt>
      <trkpt lat="52.585095" lon="8.119860">
        <ele>38.402180</ele>
        <time>2026-03-20T12:33:33.663Z</time>
      </trkpt>
      <trkpt lat="52.585276" lon="8.120542">
        <ele>38.642093</ele>
        <time>2026-03-20T12:33:45.121Z</time>
      </trkpt>
      <trkpt lat="52.585470" lon="8.121203">
        <ele>38.878736</ele>
        <time>2026-03-20T12:33:56.681Z</time>
      </trkpt>
      <trkpt lat="52.585600" lon="8.121653">
        <ele>39.039363</ele>
        <time>2026-03-20T12:34:04.502Z</time>
      </trkpt>
      <trkpt lat="52.585645" lon="8.122213">
        <ele>39.214789</ele>
        <time>2026-03-20T12:34:13.279Z</time>
      </trkpt>
      <trkpt lat="52.585477" lon="8.123280">
        <ele>39.424699</ele>
        <time>2026-03-20T12:34:30.837Z</time>
      </trkpt>
      <trkpt lat="52.585351" lon="8.124034">
        <ele>39.573621</ele>
        <time>2026-03-20T12:34:42.666Z</time>
      </trkpt>
      <trkpt lat="52.585403" lon="8.124597">
        <ele>39.682070</ele>
        <time>2026-03-20T12:34:50.679Z</time>
      </trkpt>
      <trkpt lat="52.585478" lon="8.124570">
        <ele>39.706134</ele>
        <time>2026-03-20T12:34:52.424Z</time>
      </trkpt>
      <trkpt lat="52.585527" lon="8.124816">
        <ele>39.755435</ele>
        <time>2026-03-20T12:34:55.800Z</time>
      </trkpt>
      <trkpt lat="52.585621" lon="8.125085">
        <ele>39.695903</ele>
        <time>2026-03-20T12:34:59.798Z</time>
      </trkpt>
      <trkpt lat="52.585731" lon="8.125404">
        <ele>39.584056</ele>
        <time>2026-03-20T12:35:04.410Z</time>
      </trkpt>
      <trkpt lat="52.585709" lon="8.125466">
        <ele>39.562162</ele>
        <time>2026-03-20T12:35:05.322Z</time>
      </trkpt>
      <trkpt lat="52.585728" lon="8.125543">
        <ele>39.536820</ele>
        <time>2026-03-20T12:35:06.373Z</time>
      </trkpt>
      <trkpt lat="52.585778" lon="8.125559">
        <ele>39.511256</ele>
        <time>2026-03-20T12:35:07.399Z</time>
      </trkpt>
      <trkpt lat="52.585815" lon="8.125469">
        <ele>39.478121</ele>
        <time>2026-03-20T12:35:08.759Z</time>
      </trkpt>
      <trkpt lat="52.585963" lon="8.125497">
        <ele>39.403353</ele>
        <time>2026-03-20T12:35:11.728Z</time>
      </trkpt>
      <trkpt lat="52.586714" lon="8.125997">
        <ele>38.996772</ele>
        <time>2026-03-20T12:35:27.701Z</time>
      </trkpt>
      <trkpt lat="52.587287" lon="8.126247">
        <ele>38.737370</ele>
        <time>2026-03-20T12:35:40.217Z</time>
      </trkpt>
      <trkpt lat="52.588064" lon="8.126646">
        <ele>38.422109</ele>
        <time>2026-03-20T12:35:57.828Z</time>
      </trkpt>
      <trkpt lat="52.588203" lon="8.126711">
        <ele>38.366139</ele>
        <time>2026-03-20T12:36:00.814Z</time>
      </trkpt>
      <trkpt lat="52.588235" lon="8.126727">
        <ele>38.353186</ele>
        <time>2026-03-20T12:36:01.489Z</time>
      </trkpt>
      <trkpt lat="52.588465" lon="8.126836">
        <ele>38.260481</ele>
        <time>2026-03-20T12:36:06.463Z</time>
      </trkpt>
      <trkpt lat="52.588961" lon="8.127115">
        <ele>37.959674</ele>
        <time>2026-03-20T12:36:17.053Z</time>
      </trkpt>
      <trkpt lat="52.589017" lon="8.127216">
        <ele>37.899429</ele>
        <time>2026-03-20T12:36:18.731Z</time>
      </trkpt>
      <trkpt lat="52.589124" lon="8.127548">
        <ele>37.733849</ele>
        <time>2026-03-20T12:36:23.202Z</time>
      </trkpt>
      <trkpt lat="52.589488" lon="8.127297">
        <ele>37.447648</ele>
        <time>2026-03-20T12:36:30.953Z</time>
      </trkpt>
      <trkpt lat="52.590393" lon="8.127125">
        <ele>36.822806</ele>
        <time>2026-03-20T12:36:49.091Z</time>
      </trkpt>
      <trkpt lat="52.591248" lon="8.126967">
        <ele>36.484720</ele>
        <time>2026-03-20T12:37:06.440Z</time>
      </trkpt>
      <trkpt lat="52.591343" lon="8.126813">
        <ele>36.432327</ele>
        <time>2026-03-20T12:37:09.269Z</time>
      </trkpt>
      <trkpt lat="52.591566" lon="8.126949">
        <ele>36.338877</ele>
        <time>2026-03-20T12:37:14.602Z</time>
      </trkpt>
      <trkpt lat="52.591555" lon="8.127201">
        <ele>36.278566</ele>
        <time>2026-03-20T12:37:17.972Z</time>
      </trkpt>
      <trkpt lat="52.591583" lon="8.127352">
        <ele>36.240878</ele>
        <time>2026-03-20T12:37:20.123Z</time>
      </trkpt>
      <trkpt lat="52.591714" lon="8.127641">
        <ele>36.158363</ele>
        <time>2026-03-20T12:37:25.052Z</time>
      </trkpt>
      <trkpt lat="52.592011" lon="8.128274">
        <ele>36.156728</ele>
        <time>2026-03-20T12:37:36.124Z</time>
      </trkpt>
      <trkpt lat="52.592094" lon="8.128444">
        <ele>36.156282</ele>
        <time>2026-03-20T12:37:39.139Z</time>
      </trkpt>
      <trkpt lat="52.592447" lon="8.129170">
        <ele>36.154381</ele>
        <time>2026-03-20T12:37:52.109Z</time>
      </trkpt>
      <trkpt lat="52.592753" lon="8.129794">
        <ele>36.152742</ele>
        <time>2026-03-20T12:38:02.737Z</time>
      </trkpt>
      <trkpt lat="52.593488" lon="8.131368">
        <ele>35.921056</ele>
        <time>2026-03-20T12:38:27.717Z</time>
      </trkpt>
      <trkpt lat="52.593741" lon="8.131773">
        <ele>35.845965</ele>
        <time>2026-03-20T12:38:35.502Z</time>
      </trkpt>
      <trkpt lat="52.593896" lon="8.131903">
        <ele>35.808950</ele>
        <time>2026-03-20T12:38:39.381Z</time>
      </trkpt>
      <trkpt lat="52.594068" lon="8.131937">
        <ele>35.772088</ele>
        <time>2026-03-20T12:38:43.271Z</time>
      </trkpt>
      <trkpt lat="52.594081" lon="8.132202">
        <ele>35.774929</ele>
        <time>2026-03-20T12:38:46.953Z</time>
      </trkpt>
      <trkpt lat="52.594142" lon="8.132606">
        <ele>35.783884</ele>
        <time>2026-03-20T12:38:52.761Z</time>
      </trkpt>
      <trkpt lat="52.594260" lon="8.133103">
        <ele>35.795364</ele>
        <time>2026-03-20T12:39:00.146Z</time>
      </trkpt>
      <trkpt lat="52.594373" lon="8.133455">
        <ele>35.803929</ele>
        <time>2026-03-20T12:39:05.674Z</time>
      </trkpt>
      <trkpt lat="52.594558" lon="8.133894">
        <ele>35.815423</ele>
        <time>2026-03-20T12:39:13.212Z</time>
      </trkpt>
      <trkpt lat="52.596763" lon="8.138508">
        <ele>35.024142</ele>
        <time>2026-03-20T12:40:28.840Z</time>
      </trkpt>
      <trkpt lat="52.597088" lon="8.139359">
        <ele>34.879664</ele>
        <time>2026-03-20T12:40:41.921Z</time>
      </trkpt>
      <trkpt lat="52.597070" lon="8.139493">
        <ele>34.874825</ele>
        <time>2026-03-20T12:40:43.722Z</time>
      </trkpt>
      <trkpt lat="52.597035" lon="8.139542">
        <ele>34.872158</ele>
        <time>2026-03-20T12:40:44.722Z</time>
      </trkpt>
      <trkpt lat="52.597038" lon="8.139672">
        <ele>34.867570</ele>
        <time>2026-03-20T12:40:46.412Z</time>
      </trkpt>
      <trkpt lat="52.597040" lon="8.139799">
        <ele>34.863091</ele>
        <time>2026-03-20T12:40:48.120Z</time>
      </trkpt>
      <trkpt lat="52.597291" lon="8.140027">
        <ele>34.846449</ele>
        <time>2026-03-20T12:40:54.468Z</time>
      </trkpt>
      <trkpt lat="52.597353" lon="8.140329">
        <ele>34.835209</ele>
        <time>2026-03-20T12:40:58.720Z</time>
      </trkpt>
      <trkpt lat="52.597358" lon="8.140602">
        <ele>34.825579</ele>
        <time>2026-03-20T12:41:02.313Z</time>
      </trkpt>
      <trkpt lat="52.597539" lon="8.141761">
        <ele>34.783383</ele>
        <time>2026-03-20T12:41:18.510Z</time>
      </trkpt>
      <trkpt lat="52.597587" lon="8.141886">
        <ele>34.780176</ele>
        <time>2026-03-20T12:41:20.564Z</time>
      </trkpt>
      <trkpt lat="52.597776" lon="8.143154">
        <ele>34.800811</ele>
        <time>2026-03-20T12:41:38.930Z</time>
      </trkpt>
      <trkpt lat="52.598314" lon="8.147453">
        <ele>34.730880</ele>
        <time>2026-03-20T12:42:37.371Z</time>
      </trkpt>
      <trkpt lat="52.598352" lon="8.147532">
        <ele>34.727411</ele>
        <time>2026-03-20T12:42:38.721Z</time>
      </trkpt>
      <trkpt lat="52.598407" lon="8.147894">
        <ele>34.734418</ele>
        <time>2026-03-20T12:42:43.728Z</time>
      </trkpt>
      <trkpt lat="52.598948" lon="8.151972">
        <ele>35.129732</ele>
        <time>2026-03-20T12:43:40.836Z</time>
      </trkpt>
      <trkpt lat="52.599134" lon="8.153801">
        <ele>35.595397</ele>
        <time>2026-03-20T12:44:08.271Z</time>
      </trkpt>
      <trkpt lat="52.599317" lon="8.156382">
        <ele>36.709731</ele>
        <time>2026-03-20T12:44:49.320Z</time>
      </trkpt>
      <trkpt lat="52.599374" lon="8.156368">
        <ele>36.679012</ele>
        <time>2026-03-20T12:44:50.671Z</time>
      </trkpt>
      <trkpt lat="52.599552" lon="8.156290">
        <ele>36.580830</ele>
        <time>2026-03-20T12:44:54.911Z</time>
      </trkpt>
      <trkpt lat="52.599818" lon="8.157825">
        <ele>36.064042</ele>
        <time>2026-03-20T12:45:14.582Z</time>
      </trkpt>
      <trkpt lat="52.600387" lon="8.160267">
        <ele>34.736933</ele>
        <time>2026-03-20T12:45:44.574Z</time>
      </trkpt>
      <trkpt lat="52.600431" lon="8.160912">
        <ele>34.340978</ele>
        <time>2026-03-20T12:45:52.357Z</time>
      </trkpt>
      <trkpt lat="52.600558" lon="8.161266">
        <ele>34.090162</ele>
        <time>2026-03-20T12:45:57.263Z</time>
      </trkpt>
      <trkpt lat="52.600817" lon="8.162214">
        <ele>33.886526</ele>
        <time>2026-03-20T12:46:09.939Z</time>
      </trkpt>
      <trkpt lat="52.600836" lon="8.162651">
        <ele>33.850380</ele>
        <time>2026-03-20T12:46:15.648Z</time>
      </trkpt>
      <trkpt lat="52.600798" lon="8.162949">
        <ele>33.825258</ele>
        <time>2026-03-20T12:46:19.758Z</time>
      </trkpt>
      <trkpt lat="52.600653" lon="8.163327">
        <ele>33.788372</ele>
        <time>2026-03-20T12:46:25.935Z</time>
      </trkpt>
      <trkpt lat="52.601535" lon="8.164045">
        <ele>33.743574</ele>
        <time>2026-03-20T12:47:03.182Z</time>
      </trkpt>
      <trkpt lat="52.601515" lon="8.164194">
        <ele>33.751394</ele>
        <time>2026-03-20T12:47:05.468Z</time>
      </trkpt>
      <trkpt lat="52.600807" lon="8.165149">
        <ele>33.828620</ele>
        <time>2026-03-20T12:47:27.354Z</time>
      </trkpt>
      <trkpt lat="52.602174" lon="8.167259">
        <ele>33.457291</ele>
        <time>2026-03-20T12:48:09.204Z</time>
      </trkpt>
      <trkpt lat="52.603554" lon="8.169325">
        <ele>32.936257</ele>
        <time>2026-03-20T12:48:49.685Z</time>
      </trkpt>
      <trkpt lat="52.603560" lon="8.169388">
        <ele>32.925379</ele>
        <time>2026-03-20T12:48:50.562Z</time>
      </trkpt>
      <trkpt lat="52.603571" lon="8.169523">
        <ele>32.902144</ele>
        <time>2026-03-20T12:48:52.436Z</time>
      </trkpt>
      <trkpt lat="52.603522" lon="8.169684">
        <ele>32.871424</ele>
        <time>2026-03-20T12:48:54.923Z</time>
      </trkpt>
      <trkpt lat="52.602589" lon="8.170962">
        <ele>33.340712</ele>
        <time>2026-03-20T12:49:24.558Z</time>
      </trkpt>
      <trkpt lat="52.601329" lon="8.172021">
        <ele>34.136514</ele>
        <time>2026-03-20T12:50:01.782Z</time>
      </trkpt>
      <trkpt lat="52.601093" lon="8.172172">
        <ele>34.310184</ele>
        <time>2026-03-20T12:50:08.403Z</time>
      </trkpt>
      <trkpt lat="52.600611" lon="8.172404">
        <ele>34.654635</ele>
        <time>2026-03-20T12:50:21.367Z</time>
      </trkpt>
      <trkpt lat="52.602028" lon="8.176511">
        <ele>35.621971</ele>
        <time>2026-03-20T12:51:31.454Z</time>
      </trkpt>
      <trkpt lat="52.601518" lon="8.177431">
        <ele>35.789331</ele>
        <time>2026-03-20T12:51:48.642Z</time>
      </trkpt>
      <trkpt lat="52.601015" lon="8.178304">
        <ele>36.017101</ele>
        <time>2026-03-20T12:52:05.416Z</time>
      </trkpt>
      <trkpt lat="52.600713" lon="8.178599">
        <ele>36.138527</ele>
        <time>2026-03-20T12:52:13.745Z</time>
      </trkpt>
      <trkpt lat="52.599703" lon="8.179465">
        <ele>36.623454</ele>
        <time>2026-03-20T12:52:41.193Z</time>
      </trkpt>
      <trkpt lat="52.598931" lon="8.179917">
        <ele>37.243539</ele>
        <time>2026-03-20T12:53:02.113Z</time>
      </trkpt>
      <trkpt lat="52.597916" lon="8.180648">
        <ele>38.086242</ele>
        <time>2026-03-20T12:53:30.378Z</time>
      </trkpt>
      <trkpt lat="52.597139" lon="8.181178">
        <ele>38.733019</ele>
        <time>2026-03-20T12:53:51.587Z</time>
      </trkpt>
      <trkpt lat="52.596818" lon="8.181512">
        <ele>39.025041</ele>
        <time>2026-03-20T12:54:01.374Z</time>
      </trkpt>
      <trkpt lat="52.595953" lon="8.182514">
        <ele>39.429161</ele>
        <time>2026-03-20T12:54:27.485Z</time>
      </trkpt>
      <trkpt lat="52.596095" lon="8.182767">
        <ele>39.486924</ele>
        <time>2026-03-20T12:54:32.520Z</time>
      </trkpt>
      <trkpt lat="52.596099" lon="8.182779">
        <ele>39.489219</ele>
        <time>2026-03-20T12:54:32.719Z</time>
      </trkpt>
      <trkpt lat="52.596295" lon="8.183264">
        <ele>39.586902</ele>
        <time>2026-03-20T12:54:40.883Z</time>
      </trkpt>
      <trkpt lat="52.596538" lon="8.184206">
        <ele>39.779953</ele>
        <time>2026-03-20T12:54:54.693Z</time>
      </trkpt>
      <trkpt lat="52.596655" lon="8.184913">
        <ele>39.945312</ele>
        <time>2026-03-20T12:55:04.959Z</time>
      </trkpt>
      <trkpt lat="52.596885" lon="8.185653">
        <ele>40.132894</ele>
        <time>2026-03-20T12:55:17.892Z</time>
      </trkpt>
      <trkpt lat="52.596924" lon="8.185765">
        <ele>40.162027</ele>
        <time>2026-03-20T12:55:19.984Z</time>
      </trkpt>
      <trkpt lat="52.597198" lon="8.186481">
        <ele>40.352992</ele>
        <time>2026-03-20T12:55:33.662Z</time>
      </trkpt>
      <trkpt lat="52.597207" lon="8.186625">
        <ele>40.357813</ele>
        <time>2026-03-20T12:55:35.960Z</time>
      </trkpt>
      <trkpt lat="52.597218" lon="8.186805">
        <ele>40.344332</ele>
        <time>2026-03-20T12:55:38.790Z</time>
      </trkpt>
      <trkpt lat="52.597142" lon="8.187475">
        <ele>40.293543</ele>
        <time>2026-03-20T12:55:49.048Z</time>
      </trkpt>
      <trkpt lat="52.597146" lon="8.187691">
        <ele>40.277440</ele>
        <time>2026-03-20T12:55:52.178Z</time>
      </trkpt>
      <trkpt lat="52.597712" lon="8.189963">
        <ele>39.971514</ele>
        <time>2026-03-20T12:56:23.959Z</time>
      </trkpt>
      <trkpt lat="52.597812" lon="8.189922">
        <ele>39.927546</ele>
        <time>2026-03-20T12:56:26.031Z</time>
      </trkpt>
      <trkpt lat="52.597840" lon="8.190001">
        <ele>39.903844</ele>
        <time>2026-03-20T12:56:27.186Z</time>
      </trkpt>
      <trkpt lat="52.598062" lon="8.190334">
        <ele>39.775712</ele>
        <time>2026-03-20T12:56:33.564Z</time>
      </trkpt>
      <trkpt lat="52.598431" lon="8.191183">
        <ele>39.505176</ele>
        <time>2026-03-20T12:56:47.279Z</time>
      </trkpt>
      <trkpt lat="52.598720" lon="8.191716">
        <ele>39.360656</ele>
        <time>2026-03-20T12:56:57.019Z</time>
      </trkpt>
      <trkpt lat="52.598953" lon="8.191923">
        <ele>39.328688</ele>
        <time>2026-03-20T12:57:03.150Z</time>
      </trkpt>
      <trkpt lat="52.600254" lon="8.192905">
        <ele>39.138216</ele>
        <time>2026-03-20T12:57:36.273Z</time>
      </trkpt>
      <trkpt lat="52.600651" lon="8.193357">
        <ele>38.797088</ele>
        <time>2026-03-20T12:57:46.621Z</time>
      </trkpt>
      <trkpt lat="52.600904" lon="8.193752">
        <ele>38.550673</ele>
        <time>2026-03-20T12:57:53.692Z</time>
      </trkpt>
      <trkpt lat="52.601086" lon="8.193935">
        <ele>38.399956</ele>
        <time>2026-03-20T12:57:57.961Z</time>
      </trkpt>
      <trkpt lat="52.601715" lon="8.194572">
        <ele>37.885879</ele>
        <time>2026-03-20T12:58:12.964Z</time>
      </trkpt>
      <trkpt lat="52.601967" lon="8.194913">
        <ele>37.830725</ele>
        <time>2026-03-20T12:58:19.751Z</time>
      </trkpt>
      <trkpt lat="52.602537" lon="8.195763">
        <ele>37.700692</ele>
        <time>2026-03-20T12:58:36.952Z</time>
      </trkpt>
      <trkpt lat="52.603099" lon="8.196668">
        <ele>37.603433</ele>
        <time>2026-03-20T12:58:56.265Z</time>
      </trkpt>
      <trkpt lat="52.603343" lon="8.197135">
        <ele>37.677403</ele>
        <time>2026-03-20T12:59:05.372Z</time>
      </trkpt>
      <trkpt lat="52.603740" lon="8.197995">
        <ele>37.807111</ele>
        <time>2026-03-20T12:59:21.311Z</time>
      </trkpt>
      <trkpt lat="52.604327" lon="8.199869">
        <ele>37.834413</ele>
        <time>2026-03-20T12:59:51.394Z</time>
      </trkpt>
      <trkpt lat="52.605367" lon="8.201005">
        <ele>37.617605</ele>
        <time>2026-03-20T13:00:18.631Z</time>
      </trkpt>
      <trkpt lat="52.605537" lon="8.201286">
        <ele>37.572169</ele>
        <time>2026-03-20T13:00:23.966Z</time>
      </trkpt>
      <trkpt lat="52.605988" lon="8.202305">
        <ele>37.427729</ele>
        <time>2026-03-20T13:00:41.323Z</time>
      </trkpt>
      <trkpt lat="52.606128" lon="8.202514">
        <ele>37.392084</ele>
        <time>2026-03-20T13:00:45.681Z</time>
      </trkpt>
      <trkpt lat="52.606416" lon="8.202691">
        <ele>37.334099</ele>
        <time>2026-03-20T13:00:52.685Z</time>
      </trkpt>
      <trkpt lat="52.608200" lon="8.203087">
        <ele>37.205302</ele>
        <time>2026-03-20T13:01:33.480Z</time>
      </trkpt>
      <trkpt lat="52.608227" lon="8.203170">
        <ele>37.202225</ele>
        <time>2026-03-20T13:01:34.831Z</time>
      </trkpt>
      <trkpt lat="52.608233" lon="8.203269">
        <ele>37.198974</ele>
        <time>2026-03-20T13:01:36.257Z</time>
      </trkpt>
      <trkpt lat="52.608230" lon="8.203606">
        <ele>37.191475</ele>
        <time>2026-03-20T13:01:41.189Z</time>
      </trkpt>
      <trkpt lat="52.608238" lon="8.203828">
        <ele>37.189672</ele>
        <time>2026-03-20T13:01:44.299Z</time>
      </trkpt>
      <trkpt lat="52.608325" lon="8.203953">
        <ele>37.188131</ele>
        <time>2026-03-20T13:01:46.927Z</time>
      </trkpt>
      <trkpt lat="52.609166" lon="8.204627">
        <ele>37.175644</ele>
        <time>2026-03-20T13:02:08.905Z</time>
      </trkpt>
      <trkpt lat="52.609501" lon="8.204838">
        <ele>37.170855</ele>
        <time>2026-03-20T13:02:16.308Z</time>
      </trkpt>
      <trkpt lat="52.609961" lon="8.205231">
        <ele>37.023688</ele>
        <time>2026-03-20T13:02:26.675Z</time>
      </trkpt>
      <trkpt lat="52.610748" lon="8.205998">
        <ele>36.645969</ele>
        <time>2026-03-20T13:02:45.429Z</time>
      </trkpt>
      <trkpt lat="52.611008" lon="8.206252">
        <ele>36.521106</ele>
        <time>2026-03-20T13:02:51.668Z</time>
      </trkpt>
      <trkpt lat="52.611552" lon="8.207195">
        <ele>36.512896</ele>
        <time>2026-03-20T13:03:08.994Z</time>
      </trkpt>
      <trkpt lat="52.611666" lon="8.207396">
        <ele>36.538950</ele>
        <time>2026-03-20T13:03:12.951Z</time>
      </trkpt>
      <trkpt lat="52.611827" lon="8.207737">
        <ele>36.579867</ele>
        <time>2026-03-20T13:03:19.228Z</time>
      </trkpt>
      <trkpt lat="52.613649" lon="8.211946">
        <ele>37.110528</ele>
        <time>2026-03-20T13:04:32.190Z</time>
      </trkpt>
      <trkpt lat="52.614016" lon="8.212814">
        <ele>37.077716</ele>
        <time>2026-03-20T13:04:45.611Z</time>
      </trkpt>
      <trkpt lat="52.614193" lon="8.213309">
        <ele>37.059896</ele>
        <time>2026-03-20T13:04:53.083Z</time>
      </trkpt>
      <trkpt lat="52.614259" lon="8.213553">
        <ele>37.051609</ele>
        <time>2026-03-20T13:04:56.604Z</time>
      </trkpt>
      <trkpt lat="52.614324" lon="8.213880">
        <ele>37.101777</ele>
        <time>2026-03-20T13:05:01.290Z</time>
      </trkpt>
      <trkpt lat="52.614401" lon="8.214630">
        <ele>37.380181</ele>
        <time>2026-03-20T13:05:12.259Z</time>
      </trkpt>
      <trkpt lat="52.614385" lon="8.215781">
        <ele>37.801569</ele>
        <time>2026-03-20T13:05:30.425Z</time>
      </trkpt>
      <trkpt lat="52.614414" lon="8.216014">
        <ele>37.888622</ele>
        <time>2026-03-20T13:05:34.127Z</time>
      </trkpt>
      <trkpt lat="52.614489" lon="8.216318">
        <ele>38.008724</ele>
        <time>2026-03-20T13:05:39.120Z</time>
      </trkpt>
      <trkpt lat="52.614710" lon="8.217156">
        <ele>38.210821</ele>
        <time>2026-03-20T13:05:52.772Z</time>
      </trkpt>
      <trkpt lat="52.614887" lon="8.217772">
        <ele>38.305468</ele>
        <time>2026-03-20T13:06:02.799Z</time>
      </trkpt>
      <trkpt lat="52.614991" lon="8.218389">
        <ele>38.394398</ele>
        <time>2026-03-20T13:06:11.865Z</time>
      </trkpt>
      <trkpt lat="52.615032" lon="8.218688">
        <ele>38.436968</ele>
        <time>2026-03-20T13:06:15.951Z</time>
      </trkpt>
      <trkpt lat="52.615070" lon="8.218776">
        <ele>38.451966</ele>
        <time>2026-03-20T13:06:17.364Z</time>
      </trkpt>
      <trkpt lat="52.615175" lon="8.218888">
        <ele>38.480580</ele>
        <time>2026-03-20T13:06:20.028Z</time>
      </trkpt>
      <trkpt lat="52.614996" lon="8.219491">
        <ele>38.504100</ele>
        <time>2026-03-20T13:06:28.753Z</time>
      </trkpt>
      <trkpt lat="52.614890" lon="8.219698">
        <ele>38.460963</ele>
        <time>2026-03-20T13:06:32.298Z</time>
      </trkpt>
      <trkpt lat="52.614642" lon="8.219948">
        <ele>38.384677</ele>
        <time>2026-03-20T13:06:38.590Z</time>
      </trkpt>
      <trkpt lat="52.614534" lon="8.220154">
        <ele>38.341320</ele>
        <time>2026-03-20T13:06:42.124Z</time>
      </trkpt>
      <trkpt lat="52.615449" lon="8.220837">
        <ele>38.077753</ele>
        <time>2026-03-20T13:07:03.157Z</time>
      </trkpt>
      <trkpt lat="52.615677" lon="8.221014">
        <ele>38.035275</ele>
        <time>2026-03-20T13:07:08.654Z</time>
      </trkpt>
      <trkpt lat="52.615818" lon="8.221175">
        <ele>38.008676</ele>
        <time>2026-03-20T13:07:12.395Z</time>
      </trkpt>
      <trkpt lat="52.616241" lon="8.221660">
        <ele>37.928774</ele>
        <time>2026-03-20T13:07:23.643Z</time>
      </trkpt>
      <trkpt lat="52.617510" lon="8.223301">
        <ele>37.794645</ele>
        <time>2026-03-20T13:07:58.601Z</time>
      </trkpt>
      <trkpt lat="52.617803" lon="8.223698">
        <ele>37.796773</ele>
        <time>2026-03-20T13:08:06.902Z</time>
      </trkpt>
      <trkpt lat="52.618003" lon="8.223900">
        <ele>37.798089</ele>
        <time>2026-03-20T13:08:12.084Z</time>
      </trkpt>
      <trkpt lat="52.619123" lon="8.225309">
        <ele>38.344853</ele>
        <time>2026-03-20T13:08:45.205Z</time>
      </trkpt>
      <trkpt lat="52.619201" lon="8.225484">
        <ele>38.420610</ele>
        <time>2026-03-20T13:08:48.608Z</time>
      </trkpt>
      <trkpt lat="52.619704" lon="8.226108">
        <ele>38.782547</ele>
        <time>2026-03-20T13:09:05.079Z</time>
      </trkpt>
      <trkpt lat="52.619977" lon="8.226371">
        <ele>38.884509</ele>
        <time>2026-03-20T13:09:13.123Z</time>
      </trkpt>
      <trkpt lat="52.619954" lon="8.226444">
        <ele>38.895564</ele>
        <time>2026-03-20T13:09:14.410Z</time>
      </trkpt>
      <trkpt lat="52.619850" lon="8.226848">
        <ele>38.954548</ele>
        <time>2026-03-20T13:09:20.949Z</time>
      </trkpt>
      <trkpt lat="52.619821" lon="8.227274">
        <ele>39.012168</ele>
        <time>2026-03-20T13:09:27.136Z</time>
      </trkpt>
      <trkpt lat="52.619794" lon="8.227651">
        <ele>39.063194</ele>
        <time>2026-03-20T13:09:32.447Z</time>
      </trkpt>
      <trkpt lat="52.619715" lon="8.228599">
        <ele>39.191815</ele>
        <time>2026-03-20T13:09:45.006Z</time>
      </trkpt>
      <trkpt lat="52.619584" lon="8.229452">
        <ele>39.288964</ele>
        <time>2026-03-20T13:09:56.061Z</time>
      </trkpt>
      <trkpt lat="52.619431" lon="8.230435">
        <ele>39.388128</ele>
        <time>2026-03-20T13:10:10.026Z</time>
      </trkpt>
      <trkpt lat="52.619362" lon="8.230996">
        <ele>39.444062</ele>
        <time>2026-03-20T13:10:18.243Z</time>
      </trkpt>
      <trkpt lat="52.619329" lon="8.231556">
        <ele>39.499042</ele>
        <time>2026-03-20T13:10:26.547Z</time>
      </trkpt>
      <trkpt lat="52.619318" lon="8.231784">
        <ele>39.521392</ele>
        <time>2026-03-20T13:10:29.936Z</time>
      </trkpt>
      <trkpt lat="52.619340" lon="8.232111">
        <ele>39.607459</ele>
        <time>2026-03-20T13:10:34.851Z</time>
      </trkpt>
      <trkpt lat="52.619404" lon="8.232369">
        <ele>39.681598</ele>
        <time>2026-03-20T13:10:39.039Z</time>
      </trkpt>
      <trkpt lat="52.619697" lon="8.233030">
        <ele>39.899310</ele>
        <time>2026-03-20T13:10:51.301Z</time>
      </trkpt>
      <trkpt lat="52.620050" lon="8.234467">
        <ele>40.312422</ele>
        <time>2026-03-20T13:11:13.105Z</time>
      </trkpt>
      <trkpt lat="52.620190" lon="8.235790">
        <ele>40.870304</ele>
        <time>2026-03-20T13:11:32.441Z</time>
      </trkpt>
      <trkpt lat="52.620199" lon="8.236093">
        <ele>40.996325</ele>
        <time>2026-03-20T13:11:37.044Z</time>
      </trkpt>
      <trkpt lat="52.620062" lon="8.236981">
        <ele>41.376939</ele>
        <time>2026-03-20T13:11:51.488Z</time>
      </trkpt>
      <trkpt lat="52.619924" lon="8.237488">
        <ele>41.643955</ele>
        <time>2026-03-20T13:12:00.589Z</time>
      </trkpt>
      <trkpt lat="52.619860" lon="8.237903">
        <ele>41.918402</ele>
        <time>2026-03-20T13:12:07.707Z</time>
      </trkpt>
      <trkpt lat="52.619858" lon="8.238199">
        <ele>42.108139</ele>
        <time>2026-03-20T13:12:12.652Z</time>
      </trkpt>
      <trkpt lat="52.619940" lon="8.238847">
        <ele>42.532409</ele>
        <time>2026-03-20T13:12:23.597Z</time>
      </trkpt>
      <trkpt lat="52.620179" lon="8.239663">
        <ele>43.113118</ele>
        <time>2026-03-20T13:12:37.947Z</time>
      </trkpt>
      <trkpt lat="52.620283" lon="8.239890">
        <ele>43.295397</ele>
        <time>2026-03-20T13:12:42.233Z</time>
      </trkpt>
      <trkpt lat="52.620368" lon="8.239995">
        <ele>43.407570</ele>
        <time>2026-03-20T13:12:44.863Z</time>
      </trkpt>
      <trkpt lat="52.621150" lon="8.240336">
        <ele>44.625411</ele>
        <time>2026-03-20T13:13:05.753Z</time>
      </trkpt>
      <trkpt lat="52.621263" lon="8.240432">
        <ele>44.819084</ele>
        <time>2026-03-20T13:13:09.251Z</time>
      </trkpt>
      <trkpt lat="52.621324" lon="8.240532">
        <ele>44.950177</ele>
        <time>2026-03-20T13:13:11.660Z</time>
      </trkpt>
      <trkpt lat="52.621363" lon="8.240644">
        <ele>45.069575</ele>
        <time>2026-03-20T13:13:13.874Z</time>
      </trkpt>
      <trkpt lat="52.621382" lon="8.240909">
        <ele>45.316334</ele>
        <time>2026-03-20T13:13:18.560Z</time>
      </trkpt>
      <trkpt lat="52.621344" lon="8.241980">
        <ele>46.430236</ele>
        <time>2026-03-20T13:13:38.761Z</time>
      </trkpt>
      <trkpt lat="52.621359" lon="8.242386">
        <ele>47.162732</ele>
        <time>2026-03-20T13:13:47.000Z</time>
      </trkpt>
      <trkpt lat="52.621527" lon="8.244463">
        <ele>50.936133</ele>
        <time>2026-03-20T13:14:30.972Z</time>
      </trkpt>
      <trkpt lat="52.621607" lon="8.245903">
        <ele>53.482105</ele>
        <time>2026-03-20T13:15:02.398Z</time>
      </trkpt>
      <trkpt lat="52.621620" lon="8.246486">
        <ele>54.502569</ele>
        <time>2026-03-20T13:15:15.005Z</time>
      </trkpt>
      <trkpt lat="52.621532" lon="8.247691">
        <ele>56.625540</ele>
        <time>2026-03-20T13:15:38.969Z</time>
      </trkpt>
      <trkpt lat="52.622548" lon="8.247801">
        <ele>58.050060</ele>
        <time>2026-03-20T13:16:07.677Z</time>
      </trkpt>
      <trkpt lat="52.624893" lon="8.249111">
        <ele>60.715457</ele>
        <time>2026-03-20T13:17:12.145Z</time>
      </trkpt>
      <trkpt lat="52.625348" lon="8.249255">
        <ele>60.988761</ele>
        <time>2026-03-20T13:17:24.264Z</time>
      </trkpt>
      <trkpt lat="52.625863" lon="8.249329">
        <ele>61.224817</ele>
        <time>2026-03-20T13:17:37.244Z</time>
      </trkpt>
      <trkpt lat="52.626350" lon="8.249398">
        <ele>61.448016</ele>
        <time>2026-03-20T13:17:48.841Z</time>
      </trkpt>
      <trkpt lat="52.627284" lon="8.249555">
        <ele>61.443593</ele>
        <time>2026-03-20T13:18:09.358Z</time>
      </trkpt>
      <trkpt lat="52.628037" lon="8.249731">
        <ele>61.106405</ele>
        <time>2026-03-20T13:18:24.677Z</time>
      </trkpt>
      <trkpt lat="52.628177" lon="8.249731">
        <ele>61.044336</ele>
        <time>2026-03-20T13:18:27.454Z</time>
      </trkpt>
      <trkpt lat="52.628190" lon="8.249728">
        <ele>61.038516</ele>
        <time>2026-03-20T13:18:27.703Z</time>
      </trkpt>
      <trkpt lat="52.628294" lon="8.249709">
        <ele>60.992125</ele>
        <time>2026-03-20T13:18:29.746Z</time>
      </trkpt>
      <trkpt lat="52.628941" lon="8.249387">
        <ele>60.910280</ele>
        <time>2026-03-20T13:18:43.542Z</time>
      </trkpt>
      <trkpt lat="52.629371" lon="8.249165">
        <ele>60.970973</ele>
        <time>2026-03-20T13:18:53.643Z</time>
      </trkpt>
      <trkpt lat="52.629510" lon="8.249196">
        <ele>60.989865</ele>
        <time>2026-03-20T13:18:56.999Z</time>
      </trkpt>
      <trkpt lat="52.630609" lon="8.250092">
        <ele>60.854760</ele>
        <time>2026-03-20T13:19:27.160Z</time>
      </trkpt>
      <trkpt lat="52.630776" lon="8.250164">
        <ele>60.746871</ele>
        <time>2026-03-20T13:19:30.864Z</time>
      </trkpt>
      <trkpt lat="52.630806" lon="8.250264">
        <ele>60.704556</ele>
        <time>2026-03-20T13:19:32.260Z</time>
      </trkpt>
      <trkpt lat="52.630876" lon="8.250364">
        <ele>60.646651</ele>
        <time>2026-03-20T13:19:34.159Z</time>
      </trkpt>
      <trkpt lat="52.631505" lon="8.250993">
        <ele>60.186784</ele>
        <time>2026-03-20T13:19:48.226Z</time>
      </trkpt>
      <trkpt lat="52.631701" lon="8.251133">
        <ele>60.053268</ele>
        <time>2026-03-20T13:19:52.077Z</time>
      </trkpt>
      <trkpt lat="52.634549" lon="8.252111">
        <ele>56.507363</ele>
        <time>2026-03-20T13:20:46.597Z</time>
      </trkpt>
      <trkpt lat="52.636176" lon="8.253152">
        <ele>54.424270</ele>
        <time>2026-03-20T13:21:20.126Z</time>
      </trkpt>
      <trkpt lat="52.636442" lon="8.252641">
        <ele>53.925990</ele>
        <time>2026-03-20T13:21:27.672Z</time>
      </trkpt>
      <trkpt lat="52.636786" lon="8.252160">
        <ele>53.375764</ele>
        <time>2026-03-20T13:21:35.967Z</time>
      </trkpt>
      <trkpt lat="52.638394" lon="8.250401">
        <ele>51.054196</ele>
        <time>2026-03-20T13:22:12.494Z</time>
      </trkpt>
      <trkpt lat="52.638755" lon="8.249891">
        <ele>50.485370</ele>
        <time>2026-03-20T13:22:21.710Z</time>
      </trkpt>
      <trkpt lat="52.639088" lon="8.249240">
        <ele>49.867293</ele>
        <time>2026-03-20T13:22:31.817Z</time>
      </trkpt>
      <trkpt lat="52.639661" lon="8.247757">
        <ele>48.174495</ele>
        <time>2026-03-20T13:22:51.567Z</time>
      </trkpt>
      <trkpt lat="52.640769" lon="8.244823">
        <ele>44.279976</ele>
        <time>2026-03-20T13:23:26.963Z</time>
      </trkpt>
      <trkpt lat="52.640815" lon="8.244574">
        <ele>44.119246</ele>
        <time>2026-03-20T13:23:29.824Z</time>
      </trkpt>
      <trkpt lat="52.640802" lon="8.244401">
        <ele>44.011600</ele>
        <time>2026-03-20T13:23:31.807Z</time>
      </trkpt>
      <trkpt lat="52.640825" lon="8.244366">
        <ele>43.979741</ele>
        <time>2026-03-20T13:23:32.394Z</time>
      </trkpt>
      <trkpt lat="52.640891" lon="8.244191">
        <ele>43.852504</ele>
        <time>2026-03-20T13:23:34.802Z</time>
      </trkpt>
      <trkpt lat="52.640920" lon="8.244087">
        <ele>43.781826</ele>
        <time>2026-03-20T13:23:36.139Z</time>
      </trkpt>
      <trkpt lat="52.642846" lon="8.245261">
        <ele>44.262605</ele>
        <time>2026-03-20T13:24:28.547Z</time>
      </trkpt>
      <trkpt lat="52.643256" lon="8.245428">
        <ele>44.568074</ele>
        <time>2026-03-20T13:24:39.503Z</time>
      </trkpt>
      <trkpt lat="52.643616" lon="8.245518">
        <ele>44.701207</ele>
        <time>2026-03-20T13:24:48.656Z</time>
      </trkpt>
      <trkpt lat="52.644331" lon="8.245626">
        <ele>44.963730</ele>
        <time>2026-03-20T13:25:05.695Z</time>
      </trkpt>
      <trkpt lat="52.644574" lon="8.245529">
        <ele>45.055147</ele>
        <time>2026-03-20T13:25:11.485Z</time>
      </trkpt>
      <trkpt lat="52.645123" lon="8.245551">
        <ele>45.183895</ele>
        <time>2026-03-20T13:25:23.925Z</time>
      </trkpt>
      <trkpt lat="52.646535" lon="8.245491">
        <ele>44.964426</ele>
        <time>2026-03-20T13:25:53.903Z</time>
      </trkpt>
      <trkpt lat="52.646693" lon="8.245524">
        <ele>44.939680</ele>
        <time>2026-03-20T13:25:58.422Z</time>
      </trkpt>
      <trkpt lat="52.646869" lon="8.245484">
        <ele>44.943748</ele>
        <time>2026-03-20T13:26:03.566Z</time>
      </trkpt>
      <trkpt lat="52.647406" lon="8.245260">
        <ele>45.054746</ele>
        <time>2026-03-20T13:26:20.163Z</time>
      </trkpt>
      <trkpt lat="52.647514" lon="8.245154">
        <ele>45.079933</ele>
        <time>2026-03-20T13:26:23.174Z</time>
      </trkpt>
      <trkpt lat="52.648615" lon="8.244659">
        <ele>45.200028</ele>
        <time>2026-03-20T13:26:50.532Z</time>
      </trkpt>
      <trkpt lat="52.649209" lon="8.244402">
        <ele>44.723621</ele>
        <time>2026-03-20T13:27:03.340Z</time>
      </trkpt>
      <trkpt lat="52.649745" lon="8.244154">
        <ele>44.291747</ele>
        <time>2026-03-20T13:27:13.917Z</time>
      </trkpt>
      <trkpt lat="52.650528" lon="8.243795">
        <ele>43.774923</ele>
        <time>2026-03-20T13:27:28.913Z</time>
      </trkpt>
      <trkpt lat="52.650602" lon="8.243749">
        <ele>43.743920</ele>
        <time>2026-03-20T13:27:30.969Z</time>
      </trkpt>
      <trkpt lat="52.650748" lon="8.243426">
        <ele>43.648125</ele>
        <time>2026-03-20T13:27:37.414Z</time>
      </trkpt>
      <trkpt lat="52.650806" lon="8.243420">
        <ele>43.625344</ele>
        <time>2026-03-20T13:27:38.979Z</time>
      </trkpt>
      <trkpt lat="52.650890" lon="8.243413">
        <ele>43.592373</ele>
        <time>2026-03-20T13:27:41.210Z</time>
      </trkpt>
      <trkpt lat="52.650919" lon="8.243490">
        <ele>43.570819</ele>
        <time>2026-03-20T13:27:42.692Z</time>
      </trkpt>
      <trkpt lat="52.650986" lon="8.243565">
        <ele>43.539070</ele>
        <time>2026-03-20T13:27:44.886Z</time>
      </trkpt>
      <trkpt lat="52.651038" lon="8.243567">
        <ele>43.518679</ele>
        <time>2026-03-20T13:27:46.274Z</time>
      </trkpt>
      <trkpt lat="52.651055" lon="8.243693">
        <ele>43.487982</ele>
        <time>2026-03-20T13:27:48.437Z</time>
      </trkpt>
      <trkpt lat="52.652127" lon="8.243165">
        <ele>43.457149</ele>
        <time>2026-03-20T13:28:15.841Z</time>
      </trkpt>
      <trkpt lat="52.652199" lon="8.243131">
        <ele>43.515465</ele>
        <time>2026-03-20T13:28:17.930Z</time>
      </trkpt>
      <trkpt lat="52.652460" lon="8.243012">
        <ele>43.726319</ele>
        <time>2026-03-20T13:28:25.433Z</time>
      </trkpt>
      <trkpt lat="52.653050" lon="8.242751">
        <ele>44.201969</ele>
        <time>2026-03-20T13:28:42.514Z</time>
      </trkpt>
      <trkpt lat="52.653091" lon="8.242736">
        <ele>44.234669</ele>
        <time>2026-03-20T13:28:43.697Z</time>
      </trkpt>
      <trkpt lat="52.654263" lon="8.242208">
        <ele>44.447981</ele>
        <time>2026-03-20T13:29:14.198Z</time>
      </trkpt>
      <trkpt lat="52.654547" lon="8.242079">
        <ele>44.394549</ele>
        <time>2026-03-20T13:29:20.549Z</time>
      </trkpt>
      <trkpt lat="52.655076" lon="8.241821">
        <ele>44.294488</ele>
        <time>2026-03-20T13:29:31.970Z</time>
      </trkpt>
      <trkpt lat="52.655444" lon="8.241652">
        <ele>44.136122</ele>
        <time>2026-03-20T13:29:39.739Z</time>
      </trkpt>
      <trkpt lat="52.655647" lon="8.241560">
        <ele>44.000693</ele>
        <time>2026-03-20T13:29:44.077Z</time>
      </trkpt>
      <trkpt lat="52.655928" lon="8.241438">
        <ele>43.813771</ele>
        <time>2026-03-20T13:29:50.161Z</time>
      </trkpt>
      <trkpt lat="52.656845" lon="8.241023">
        <ele>43.202068</ele>
        <time>2026-03-20T13:30:10.319Z</time>
      </trkpt>
      <trkpt lat="52.657069" lon="8.240936">
        <ele>43.064995</ele>
        <time>2026-03-20T13:30:15.325Z</time>
      </trkpt>
      <trkpt lat="52.658998" lon="8.240093">
        <ele>42.035371</ele>
        <time>2026-03-20T13:30:58.138Z</time>
      </trkpt>
      <trkpt lat="52.659148" lon="8.240030">
        <ele>41.939680</ele>
        <time>2026-03-20T13:31:01.394Z</time>
      </trkpt>
      <trkpt lat="52.659419" lon="8.239910">
        <ele>41.766211</ele>
        <time>2026-03-20T13:31:07.245Z</time>
      </trkpt>
      <trkpt lat="52.659935" lon="8.239851">
        <ele>41.446456</ele>
        <time>2026-03-20T13:31:18.023Z</time>
      </trkpt>
      <trkpt lat="52.660656" lon="8.240040">
        <ele>41.098176</ele>
        <time>2026-03-20T13:31:33.472Z</time>
      </trkpt>
      <trkpt lat="52.660783" lon="8.240070">
        <ele>41.102846</ele>
        <time>2026-03-20T13:31:36.280Z</time>
      </trkpt>
      <trkpt lat="52.661104" lon="8.240154">
        <ele>41.114678</ele>
        <time>2026-03-20T13:31:43.477Z</time>
      </trkpt>
      <trkpt lat="52.662096" lon="8.240432">
        <ele>41.151309</ele>
        <time>2026-03-20T13:32:07.368Z</time>
      </trkpt>
      <trkpt lat="52.662551" lon="8.240550">
        <ele>41.351511</ele>
        <time>2026-03-20T13:32:19.547Z</time>
      </trkpt>
      <trkpt lat="52.662625" lon="8.240564">
        <ele>41.403212</ele>
        <time>2026-03-20T13:32:21.474Z</time>
      </trkpt>
      <trkpt lat="52.662654" lon="8.240567">
        <ele>41.423381</ele>
        <time>2026-03-20T13:32:22.233Z</time>
      </trkpt>
      <trkpt lat="52.663331" lon="8.240096">
        <ele>41.933414</ele>
        <time>2026-03-20T13:32:40.723Z</time>
      </trkpt>
      <trkpt lat="52.663593" lon="8.239917">
        <ele>42.130265</ele>
        <time>2026-03-20T13:32:47.636Z</time>
      </trkpt>
      <trkpt lat="52.663660" lon="8.239874">
        <ele>42.180169</ele>
        <time>2026-03-20T13:32:49.354Z</time>
      </trkpt>
      <trkpt lat="52.663694" lon="8.239848">
        <ele>42.206184</ele>
        <time>2026-03-20T13:32:50.251Z</time>
      </trkpt>
      <trkpt lat="52.664026" lon="8.239584">
        <ele>42.505898</ele>
        <time>2026-03-20T13:32:59.514Z</time>
      </trkpt>
      <trkpt lat="52.664130" lon="8.239454">
        <ele>42.667903</ele>
        <time>2026-03-20T13:33:02.868Z</time>
      </trkpt>
      <trkpt lat="52.664690" lon="8.238962">
        <ele>43.455577</ele>
        <time>2026-03-20T13:33:19.886Z</time>
      </trkpt>
      <trkpt lat="52.664783" lon="8.238881">
        <ele>43.586138</ele>
        <time>2026-03-20T13:33:22.960Z</time>
      </trkpt>
      <trkpt lat="52.664809" lon="8.238862">
        <ele>43.621440</ele>
        <time>2026-03-20T13:33:23.821Z</time>
      </trkpt>
      <trkpt lat="52.664915" lon="8.238788">
        <ele>43.764330</ele>
        <time>2026-03-20T13:33:27.159Z</time>
      </trkpt>
      <trkpt lat="52.665309" lon="8.238562">
        <ele>44.282167</ele>
        <time>2026-03-20T13:33:39.176Z</time>
      </trkpt>
      <trkpt lat="52.665581" lon="8.238242">
        <ele>44.634312</ele>
        <time>2026-03-20T13:33:48.442Z</time>
      </trkpt>
      <trkpt lat="52.665670" lon="8.238252">
        <ele>44.625129</ele>
        <time>2026-03-20T13:33:50.897Z</time>
      </trkpt>
      <trkpt lat="52.665720" lon="8.238052">
        <ele>44.611624</ele>
        <time>2026-03-20T13:33:54.565Z</time>
      </trkpt>
      <trkpt lat="52.665781" lon="8.237297">
        <ele>44.564073</ele>
        <time>2026-03-20T13:34:06.297Z</time>
      </trkpt>
      <trkpt lat="52.665731" lon="8.236914">
        <ele>44.539615</ele>
        <time>2026-03-20T13:34:11.816Z</time>
      </trkpt>
      <trkpt lat="52.665673" lon="8.236676">
        <ele>44.523602</ele>
        <time>2026-03-20T13:34:16.107Z</time>
      </trkpt>
      <trkpt lat="52.665644" lon="8.236455">
        <ele>44.509485</ele>
        <time>2026-03-20T13:34:18.914Z</time>
      </trkpt>
      <trkpt lat="52.665660" lon="8.235907">
        <ele>44.475234</ele>
        <time>2026-03-20T13:34:25.343Z</time>
      </trkpt>
      <trkpt lat="52.665773" lon="8.235702">
        <ele>44.457940</ele>
        <time>2026-03-20T13:34:29.536Z</time>
      </trkpt>
      <trkpt lat="52.665969" lon="8.235320">
        <ele>44.044324</ele>
        <time>2026-03-20T13:34:35.522Z</time>
      </trkpt>
      <trkpt lat="52.666077" lon="8.234903">
        <ele>43.618846</ele>
        <time>2026-03-20T13:34:41.150Z</time>
      </trkpt>
      <trkpt lat="52.666164" lon="8.234524">
        <ele>43.238590</ele>
        <time>2026-03-20T13:34:46.100Z</time>
      </trkpt>
      <trkpt lat="52.666119" lon="8.234331">
        <ele>43.044566</ele>
        <time>2026-03-20T13:34:48.433Z</time>
      </trkpt>
      <trkpt lat="52.666100" lon="8.234031">
        <ele>42.761532</ele>
        <time>2026-03-20T13:34:51.724Z</time>
      </trkpt>
      <trkpt lat="52.666190" lon="8.233679">
        <ele>42.403080</ele>
        <time>2026-03-20T13:34:55.862Z</time>
      </trkpt>
      <trkpt lat="52.666420" lon="8.233289">
        <ele>41.892626</ele>
        <time>2026-03-20T13:35:01.709Z</time>
      </trkpt>
      <trkpt lat="52.666546" lon="8.233083">
        <ele>41.586209</ele>
        <time>2026-03-20T13:35:04.852Z</time>
      </trkpt>
      <trkpt lat="52.666714" lon="8.232810">
        <ele>41.001371</ele>
        <time>2026-03-20T13:35:08.982Z</time>
      </trkpt>
      <trkpt lat="52.666904" lon="8.232501">
        <ele>40.339685</ele>
        <time>2026-03-20T13:35:13.546Z</time>
      </trkpt>
      <trkpt lat="52.667315" lon="8.231824">
        <ele>38.899266</ele>
        <time>2026-03-20T13:35:23.093Z</time>
      </trkpt>
      <trkpt lat="52.667598" lon="8.231357">
        <ele>37.906553</ele>
        <time>2026-03-20T13:35:30.062Z</time>
      </trkpt>
      <trkpt lat="52.667921" lon="8.230882">
        <ele>37.073182</ele>
        <time>2026-03-20T13:35:37.852Z</time>
      </trkpt>
      <trkpt lat="52.667977" lon="8.230935">
        <ele>37.014666</ele>
        <time>2026-03-20T13:35:38.995Z</time>
      </trkpt>
      <trkpt lat="52.668042" lon="8.230920">
        <ele>36.955185</ele>
        <time>2026-03-20T13:35:40.148Z</time>
      </trkpt>
      <trkpt lat="52.668097" lon="8.230792">
        <ele>36.868969</ele>
        <time>2026-03-20T13:35:41.855Z</time>
      </trkpt>
      <trkpt lat="52.668064" lon="8.230645">
        <ele>36.782822</ele>
        <time>2026-03-20T13:35:43.579Z</time>
      </trkpt>
      <trkpt lat="52.668415" lon="8.230185">
        <ele>36.376499</ele>
        <time>2026-03-20T13:35:52.267Z</time>
      </trkpt>
      <trkpt lat="52.668570" lon="8.230049">
        <ele>36.217381</ele>
        <time>2026-03-20T13:35:55.852Z</time>
      </trkpt>
      <trkpt lat="52.668528" lon="8.229933">
        <ele>36.143132</ele>
        <time>2026-03-20T13:35:57.625Z</time>
      </trkpt>
      <trkpt lat="52.668487" lon="8.229817">
        <ele>36.069342</ele>
        <time>2026-03-20T13:35:59.326Z</time>
      </trkpt>
      <trkpt lat="52.668345" lon="8.229314">
        <ele>35.764417</ele>
        <time>2026-03-20T13:36:06.715Z</time>
      </trkpt>
      <trkpt lat="52.668315" lon="8.229163">
        <ele>35.677090</ele>
        <time>2026-03-20T13:36:08.865Z</time>
      </trkpt>
      <trkpt lat="52.668149" lon="8.228263">
        <ele>35.580819</ele>
        <time>2026-03-20T13:36:21.959Z</time>
      </trkpt>
      <trkpt lat="52.668046" lon="8.227887">
        <ele>35.580595</ele>
        <time>2026-03-20T13:36:28.121Z</time>
      </trkpt>
      <trkpt lat="52.667863" lon="8.227383">
        <ele>35.580277</ele>
        <time>2026-03-20T13:36:36.039Z</time>
      </trkpt>
      <trkpt lat="52.667957" lon="8.227267">
        <ele>35.580172</ele>
        <time>2026-03-20T13:36:38.681Z</time>
      </trkpt>
      <trkpt lat="52.668061" lon="8.227139">
        <ele>35.580057</ele>
        <time>2026-03-20T13:36:41.556Z</time>
      </trkpt>
      <trkpt lat="52.668287" lon="8.226741">
        <ele>35.579761</ele>
        <time>2026-03-20T13:36:48.904Z</time>
      </trkpt>
      <trkpt lat="52.668421" lon="8.226423">
        <ele>35.527199</ele>
        <time>2026-03-20T13:36:54.217Z</time>
      </trkpt>
      <trkpt lat="52.668702" lon="8.225779">
        <ele>35.231005</ele>
        <time>2026-03-20T13:37:04.978Z</time>
      </trkpt>
      <trkpt lat="52.668814" lon="8.225630">
        <ele>35.142413</ele>
        <time>2026-03-20T13:37:08.066Z</time>
      </trkpt>
      <trkpt lat="52.668950" lon="8.225511">
        <ele>35.047631</ele>
        <time>2026-03-20T13:37:11.290Z</time>
      </trkpt>
      <trkpt lat="52.669100" lon="8.225433">
        <ele>34.950804</ele>
        <time>2026-03-20T13:37:14.520Z</time>
      </trkpt>
      <trkpt lat="52.669261" lon="8.225410">
        <ele>34.851316</ele>
        <time>2026-03-20T13:37:17.800Z</time>
      </trkpt>
      <trkpt lat="52.669618" lon="8.225457">
        <ele>34.630837</ele>
        <time>2026-03-20T13:37:25.162Z</time>
      </trkpt>
      <trkpt lat="52.669910" lon="8.225361">
        <ele>34.435288</ele>
        <time>2026-03-20T13:37:31.307Z</time>
      </trkpt>
      <trkpt lat="52.670085" lon="8.225165">
        <ele>34.240720</ele>
        <time>2026-03-20T13:37:35.624Z</time>
      </trkpt>
      <trkpt lat="52.670188" lon="8.224917">
        <ele>34.073070</ele>
        <time>2026-03-20T13:37:39.316Z</time>
      </trkpt>
      <trkpt lat="52.670311" lon="8.224412">
        <ele>33.769544</ele>
        <time>2026-03-20T13:37:45.913Z</time>
      </trkpt>
      <trkpt lat="52.670338" lon="8.224274">
        <ele>33.688670</ele>
        <time>2026-03-20T13:37:47.673Z</time>
      </trkpt>
      <trkpt lat="52.670611" lon="8.222965">
        <ele>32.916628</ele>
        <time>2026-03-20T13:38:04.752Z</time>
      </trkpt>
      <trkpt lat="52.670959" lon="8.221219">
        <ele>32.818038</ele>
        <time>2026-03-20T13:38:27.923Z</time>
      </trkpt>
      <trkpt lat="52.671221" lon="8.219955">
        <ele>32.818038</ele>
        <time>2026-03-20T13:38:45.884Z</time>
      </trkpt>
      <trkpt lat="52.671263" lon="8.219769">
        <ele>32.818038</ele>
        <time>2026-03-20T13:38:48.649Z</time>
      </trkpt>
      <trkpt lat="52.671324" lon="8.219465">
        <ele>32.818038</ele>
        <time>2026-03-20T13:38:53.186Z</time>
      </trkpt>
      <trkpt lat="52.671334" lon="8.219419">
        <ele>32.818038</ele>
        <time>2026-03-20T13:38:53.884Z</time>
      </trkpt>
      <trkpt lat="52.671399" lon="8.219092">
        <ele>32.818038</ele>
        <time>2026-03-20T13:38:58.787Z</time>
      </trkpt>
      <trkpt lat="52.671333" lon="8.219059">
        <ele>32.818038</ele>
        <time>2026-03-20T13:39:00.817Z</time>
      </trkpt>
      <trkpt lat="52.671256" lon="8.219017">
        <ele>32.818038</ele>
        <time>2026-03-20T13:39:03.220Z</time>
      </trkpt>
    </trkseg>
  </trk>
</gpx>